Observation data for JA Ranch on 01/18/2019      Previous  Date  Next       Current Mesonet Observations  Soil Data  Daily Summary Page  Observations in Plain Language
KPD3 180600Z 30003KT M03/M04 A2999 RMK A01 T10301043  RH  091%=      5-min Rain = 0
KPD3 180601Z 31003KT M03/M04 A2999 RMK A01 T10281040  RH  092%=      5-min Rain = 0
KPD3 180602Z 31002KT M03/M04 A2999 RMK A01 T10271039  RH  092%=      5-min Rain = 0
KPD3 180603Z 31002KT M03/M04 A2999 RMK A01 T10271039  RH  092%=      5-min Rain = 0
KPD3 180604Z 32002KT M03/M04 A2999 RMK A01 T10271039  RH  091%=      5-min Rain = 0
KPD3 180605Z 32002KT M03/M04 A2999 RMK A01 T10251037  RH  092%=      5-min Rain = 0
KPD3 180606Z 32002KT M02/M03 A2999 RMK A01 T10231033  RH  093%=      5-min Rain = 0
KPD3 180607Z 32002KT M02/M03 A2999 RMK A01 T10201029  RH  093%=      5-min Rain = 0
KPD3 180608Z 32002KT M02/M03 A2999 RMK A01 T10171026  RH  093%=      5-min Rain = 0
KPD3 180609Z 32002KT M02/M03 A2999 RMK A01 T10151025  RH  093%=      5-min Rain = 0
KPD3 180610Z 32002KT M01/M02 A2999 RMK A01 T10131024  RH  092%=      5-min Rain = 0
KPD3 180611Z 31002KT M01/M02 A2999 RMK A01 T10111022  RH  092%=      5-min Rain = 0
KPD3 180612Z 30002KT M01/M02 A2999 RMK A01 T10091021  RH  091%=      5-min Rain = 0
KPD3 180613Z 30002KT M01/M02 A2999 RMK A01 T10081021  RH  091%=      5-min Rain = 0
KPD3 180614Z 28001KT M01/M02 A2999 RMK A01 T10071022  RH  090%=      5-min Rain = 0
KPD3 180615Z 25001KT M01/M02 A2999 RMK A01 T10071024  RH  089%=      5-min Rain = 0
KPD3 180616Z 23000KT M01/M03 A2999 RMK A01 T10081026  RH  087%=      5-min Rain = 0
KPD3 180617Z 22001KT M01/M03 A2999 RMK A01 T10101031  RH  086%=      5-min Rain = 0
KPD3 180618Z 22001KT M01/M03 A2999 RMK A01 T10121033  RH  086%=      5-min Rain = 0
KPD3 180619Z 22001KT M01/M03 A2999 RMK A01 T10131033  RH  086%=      5-min Rain = 0
KPD3 180620Z 23002KT M02/M03 A2999 RMK A01 T10151034  RH  087%=      5-min Rain = 0
KPD3 180621Z 22002KT M02/M04 A2999 RMK A01 T10171037  RH  086%=      5-min Rain = 0
KPD3 180622Z 22002KT M02/M04 A2999 RMK A01 T10181037  RH  087%=      5-min Rain = 0
KPD3 180623Z 23002KT M02/M04 A2999 RMK A01 T10181035  RH  088%=      5-min Rain = 0
KPD3 180624Z 23002KT M02/M03 A2999 RMK A01 T10161031  RH  090%=      5-min Rain = 0
KPD3 180625Z 22002KT M02/M03 A2999 RMK A01 T10161032  RH  089%=      5-min Rain = 0
KPD3 180626Z 22002KT M02/M03 A2998 RMK A01 T10161033  RH  088%=      5-min Rain = 0
KPD3 180627Z 21002KT M02/M03 A2998 RMK A01 T10161031  RH  090%=      5-min Rain = 0
KPD3 180628Z 21003KT M02/M03 A2998 RMK A01 T10161031  RH  089%=      5-min Rain = 0
KPD3 180629Z 21002KT M02/M04 A2998 RMK A01 T10171035  RH  088%=      5-min Rain = 0
KPD3 180630Z 20002KT M02/M04 A2998 RMK A01 T10191037  RH  087%=      5-min Rain = 0
KPD3 180631Z 19002KT M02/M04 A2998 RMK A01 T10201038  RH  088%=      5-min Rain = 0
KPD3 180632Z 21002KT M02/M04 A2998 RMK A01 T10201037  RH  089%=      5-min Rain = 0
KPD3 180633Z 21002KT M02/M04 A2998 RMK A01 T10201035  RH  089%=      5-min Rain = 0
KPD3 180634Z 21002KT M02/M04 A2998 RMK A01 T10201035  RH  089%=      5-min Rain = 0
KPD3 180635Z 21002KT M02/M04 A2998 RMK A01 T10201035  RH  090%=      5-min Rain = 0
KPD3 180636Z 21002KT M02/M04 A2997 RMK A01 T10201035  RH  089%=      5-min Rain = 0
KPD3 180637Z 21002KT M02/M04 A2997 RMK A01 T10201035  RH  089%=      5-min Rain = 0
KPD3 180638Z 21002KT M02/M04 A2997 RMK A01 T10201036  RH  089%=      5-min Rain = 0
KPD3 180639Z 20002KT M02/M04 A2997 RMK A01 T10201037  RH  089%=      5-min Rain = 0
KPD3 180640Z 20002KT M02/M04 A2997 RMK A01 T10211037  RH  089%=      5-min Rain = 0
KPD3 180641Z 19002KT M02/M04 A2997 RMK A01 T10211036  RH  089%=      5-min Rain = 0
KPD3 180642Z 20001KT M02/M04 A2997 RMK A01 T10211037  RH  089%=      5-min Rain = 0
KPD3 180643Z 20001KT M02/M04 A2997 RMK A01 T10221037  RH  089%=      5-min Rain = 0
KPD3 180644Z 20001KT M02/M04 A2997 RMK A01 T10221037  RH  089%=      5-min Rain = 0
KPD3 180645Z 20001KT M02/M04 A2997 RMK A01 T10221037  RH  089%=      5-min Rain = 0
KPD3 180646Z 20000KT M02/M04 A2997 RMK A01 T10221038  RH  089%=      5-min Rain = 0
KPD3 180647Z 20001KT M02/M04 A2997 RMK A01 T10231038  RH  089%=      5-min Rain = 0
KPD3 180648Z 19001KT M02/M04 A2997 RMK A01 T10231039  RH  089%=      5-min Rain = 0
KPD3 180649Z 22001KT M02/M04 A2997 RMK A01 T10241039  RH  089%=      5-min Rain = 0
KPD3 180650Z 21001KT M03/M04 A2997 RMK A01 T10251041  RH  089%=      5-min Rain = 0
KPD3 180651Z 23001KT M03/M04 A2997 RMK A01 T10251041  RH  089%=      5-min Rain = 0
KPD3 180652Z 23002KT M03/M04 A2997 RMK A01 T10271042  RH  089%=      5-min Rain = 0
KPD3 180653Z 23002KT M03/M04 A2997 RMK A01 T10271042  RH  090%=      5-min Rain = 0
KPD3 180654Z 22002KT M03/M04 A2997 RMK A01 T10271041  RH  090%=      5-min Rain = 0
KPD3 180655Z 22002KT M03/M04 A2997 RMK A01 T10261039  RH  091%=      5-min Rain = 0
KPD3 180656Z 21002KT M02/M04 A2997 RMK A01 T10241035  RH  092%=      5-min Rain = 0
KPD3 180657Z 21002KT M02/M03 A2996 RMK A01 T10221033  RH  092%=      5-min Rain = 0
KPD3 180658Z 20003KT M02/M03 A2996 RMK A01 T10211033  RH  092%=      5-min Rain = 0
KPD3 180659Z 20003KT M02/M03 A2996 RMK A01 T10191030  RH  092%=      5-min Rain = 0
KPD3 180700Z 20002KT M02/M02 A2996 RMK A01 T10151024  RH  093%=      5-min Rain = 0
KPD3 180701Z 21003KT M01/M02 A2996 RMK A01 T10131024  RH  092%=      5-min Rain = 0
KPD3 180702Z 20002KT M01/M03 A2996 RMK A01 T10131027  RH  090%=      5-min Rain = 0
KPD3 180703Z 22004KT M01/M03 A2996 RMK A01 T10131028  RH  090%=      5-min Rain = 0
KPD3 180704Z 22004KT M01/M03 A2996 RMK A01 T10141032  RH  088%=      5-min Rain = 0
KPD3 180705Z 21003KT M02/M03 A2996 RMK A01 T10161033  RH  088%=      5-min Rain = 0
KPD3 180706Z 23003KT M02/M03 A2996 RMK A01 T10171032  RH  089%=      5-min Rain = 0
KPD3 180707Z 19001KT M02/M03 A2996 RMK A01 T10181034  RH  089%=      5-min Rain = 0
KPD3 180708Z 22002KT M02/M03 A2996 RMK A01 T10181034  RH  089%=      5-min Rain = 0
KPD3 180709Z 23004KT M02/M04 A2996 RMK A01 T10201036  RH  089%=      5-min Rain = 0
KPD3 180710Z 22004KT M02/M04 A2995 RMK A01 T10211036  RH  089%=      5-min Rain = 0
KPD3 180711Z 19002KT M02/M04 A2995 RMK A01 T10211035  RH  090%=      5-min Rain = 0
KPD3 180712Z 21002KT M02/M03 A2995 RMK A01 T10211034  RH  091%=      5-min Rain = 0
KPD3 180713Z 22002KT M02/M04 A2995 RMK A01 T10211035  RH  090%=      5-min Rain = 0
KPD3 180714Z 20002KT M02/M04 A2995 RMK A01 T10211035  RH  090%=      5-min Rain = 0
KPD3 180715Z 23004KT M02/M04 A2995 RMK A01 T10221035  RH  090%=      5-min Rain = 0
KPD3 180716Z 21004KT M02/M04 A2995 RMK A01 T10221035  RH  091%=      5-min Rain = 0
KPD3 180717Z 19003KT M02/M03 A2995 RMK A01 T10211034  RH  091%=      5-min Rain = 0
KPD3 180718Z 21003KT M02/M03 A2995 RMK A01 T10201033  RH  091%=      5-min Rain = 0
KPD3 180719Z 20003KT M02/M04 A2995 RMK A01 T10211035  RH  090%=      5-min Rain = 0
KPD3 180720Z 22004KT M02/M04 A2995 RMK A01 T10221036  RH  090%=      5-min Rain = 0
KPD3 180721Z 22004KT M02/M04 A2995 RMK A01 T10231037  RH  090%=      5-min Rain = 0
KPD3 180722Z 20003KT M02/M04 A2995 RMK A01 T10231037  RH  090%=      5-min Rain = 0
KPD3 180723Z 23003KT M02/M04 A2995 RMK A01 T10221036  RH  091%=      5-min Rain = 0
KPD3 180724Z 21003KT M02/M04 A2995 RMK A01 T10221035  RH  091%=      5-min Rain = 0
KPD3 180725Z 21003KT M02/M03 A2995 RMK A01 T10211034  RH  091%=      5-min Rain = 0
KPD3 180726Z 22004KT M02/M04 A2995 RMK A01 T10211035  RH  090%=      5-min Rain = 0
KPD3 180727Z 22003KT M02/M04 A2995 RMK A01 T10221036  RH  090%=      5-min Rain = 0
KPD3 180728Z 21004KT M02/M04 A2995 RMK A01 T10221036  RH  090%=      5-min Rain = 0
KPD3 180729Z 22004KT M02/M04 A2995 RMK A01 T10221035  RH  091%=      5-min Rain = 0
KPD3 180730Z 22004KT M02/M03 A2995 RMK A01 T10191032  RH  091%=      5-min Rain = 0
KPD3 180731Z 22004KT M02/M03 A2995 RMK A01 T10161026  RH  093%=      5-min Rain = 0
KPD3 180732Z 21003KT M01/M02 A2995 RMK A01 T10111020  RH  094%=      5-min Rain = 0
KPD3 180733Z 20005KT M01/M01 A2995 RMK A01 T10061014  RH  094%=      5-min Rain = 0
KPD3 180734Z 20006KT M01/M02 A2995 RMK A01 T10071022  RH  090%=      5-min Rain = 0
KPD3 180735Z 21006KT M01/M02 A2995 RMK A01 T10071020  RH  091%=      5-min Rain = 0
KPD3 180736Z 20005KT M00/M02 A2995 RMK A01 T10041016  RH  092%=      5-min Rain = 0
KPD3 180737Z 19006KT M00/M01 A2995 RMK A01 T10011012  RH  092%=      5-min Rain = 0
KPD3 180738Z 19005KT 01/M01 A2995 RMK A01 T00051005  RH  093%=      5-min Rain = 0
KPD3 180739Z 19006KT 01/00 A2995 RMK A01 T001000-0  RH  093%=      5-min Rain = 0
KPD3 180740Z 19007KT 01/M00 A2995 RMK A01 T00101004  RH  090%=      5-min Rain = 0
KPD3 180741Z 19007KT 01/M01 A2994 RMK A01 T00111005  RH  089%=      5-min Rain = 0
KPD3 180742Z 18007KT 01/M00 A2994 RMK A01 T00131001  RH  090%=      5-min Rain = 0
KPD3 180743Z 18007KT 02/00 A2994 RMK A01 T001500-0  RH  090%=      5-min Rain = 0
KPD3 180744Z 19007KT 02/00 A2994 RMK A01 T001600-0  RH  089%=      5-min Rain = 0
KPD3 180745Z 18008KT 02/00 A2994 RMK A01 T00190002  RH  089%=      5-min Rain = 0
KPD3 180746Z 18008KT 02/00 A2994 RMK A01 T00210004  RH  088%=      5-min Rain = 0
KPD3 180747Z 19009KT 02/M00 A2994 RMK A01 T00201001  RH  085%=      5-min Rain = 0
KPD3 180748Z 18009KT 02/M00 A2994 RMK A01 T00191003  RH  085%=      5-min Rain = 0
KPD3 180749Z 19008KT 02/M01 A2994 RMK A01 T00171005  RH  085%=      5-min Rain = 0
KPD3 180750Z 18008KT 02/M01 A2994 RMK A01 T00151006  RH  086%=      5-min Rain = 0
KPD3 180751Z 19008KT 01/M01 A2994 RMK A01 T00141005  RH  087%=      5-min Rain = 0
KPD3 180752Z 20009KT 01/M00 A2994 RMK A01 T00141003  RH  088%=      5-min Rain = 0
KPD3 180753Z 19009KT 02/00 A2993 RMK A01 T001600-0  RH  089%=      5-min Rain = 0
KPD3 180754Z 19009KT 02/00 A2993 RMK A01 T00180003  RH  089%=      5-min Rain = 0
KPD3 180755Z 19009KT 02/00 A2993 RMK A01 T00200003  RH  089%=      5-min Rain = 0
KPD3 180756Z 20007KT 02/00 A2993 RMK A01 T00200002  RH  088%=      5-min Rain = 0
KPD3 180757Z 19008KT 02/00 A2993 RMK A01 T00200001  RH  087%=      5-min Rain = 0
KPD3 180758Z 20006KT 02/00 A2993 RMK A01 T001900-0  RH  087%=      5-min Rain = 0
KPD3 180759Z 20006KT 02/00 A2993 RMK A01 T00180001  RH  088%=      5-min Rain = 0
KPD3 180800Z 20006KT 02/00 A2993 RMK A01 T00180001  RH  088%=      5-min Rain = 0
KPD3 180801Z 20006KT 02/00 A2993 RMK A01 T00190001  RH  088%=      5-min Rain = 0
KPD3 180802Z 19008KT 02/00 A2993 RMK A01 T00180001  RH  088%=      5-min Rain = 0
KPD3 180803Z 19007KT 02/00 A2993 RMK A01 T00180000  RH  088%=      5-min Rain = 0
KPD3 180804Z 21007KT 02/M00 A2993 RMK A01 T00181001  RH  088%=      5-min Rain = 0
KPD3 180805Z 20007KT 02/00 A2993 RMK A01 T001700-0  RH  088%=      5-min Rain = 0
KPD3 180806Z 19007KT 02/00 A2993 RMK A01 T001700-0  RH  088%=      5-min Rain = 0
KPD3 180807Z 21008KT 02/00 A2993 RMK A01 T00170000  RH  089%=      5-min Rain = 0
KPD3 180808Z 18006KT 02/M00 A2993 RMK A01 T00171001  RH  088%=      5-min Rain = 0
KPD3 180809Z 21005KT 02/00 A2993 RMK A01 T00180001  RH  089%=      5-min Rain = 0
KPD3 180810Z 20008KT 02/00 A2993 RMK A01 T00190002  RH  089%=      5-min Rain = 0
KPD3 180811Z 20007KT 02/00 A2993 RMK A01 T00190001  RH  088%=      5-min Rain = 0
KPD3 180812Z 19008KT 02/00 A2993 RMK A01 T00190002  RH  088%=      5-min Rain = 0
KPD3 180813Z 18008KT 02/00 A2992 RMK A01 T00200003  RH  088%=      5-min Rain = 0
KPD3 180814Z 18009KT 02/00 A2992 RMK A01 T00200001  RH  087%=      5-min Rain = 0
KPD3 180815Z 18008KT 02/M00 A2992 RMK A01 T00181002  RH  087%=      5-min Rain = 0
KPD3 180816Z 18009KT 02/M00 A2992 RMK A01 T00151004  RH  087%=      5-min Rain = 0
KPD3 180817Z 17011KT 02/00 A2992 RMK A01 T00160001  RH  090%=      5-min Rain = 0
KPD3 180818Z 17011KT 03/01 A2992 RMK A01 T00250012  RH  091%=      5-min Rain = 0
KPD3 180819Z 18011KT 03/01 A2992 RMK A01 T00290012  RH  089%=      5-min Rain = 0
KPD3 180820Z 19011KT 03/01 A2992 RMK A01 T00330013  RH  087%=      5-min Rain = 0
KPD3 180821Z 19010KT 04/02 A2992 RMK A01 T00390015  RH  084%=      5-min Rain = 0
KPD3 180822Z 19010KT 04/01 A2992 RMK A01 T00410012  RH  082%=      5-min Rain = 0
KPD3 180823Z 19012KT 04/01 A2992 RMK A01 T00410012  RH  081%=      5-min Rain = 0
KPD3 180824Z 19011KT 05/01 A2992 RMK A01 T00470012  RH  078%=      5-min Rain = 0
KPD3 180825Z 19012KT 05/01 A2992 RMK A01 T00540013  RH  075%=      5-min Rain = 0
KPD3 180826Z 20011KT 06/01 A2992 RMK A01 T00590013  RH  073%=      5-min Rain = 0
KPD3 180827Z 20012KT 06/01 A2992 RMK A01 T00640014  RH  070%=      5-min Rain = 0
KPD3 180828Z 20010KT 07/01 A2992 RMK A01 T00650013  RH  069%=      5-min Rain = 0
KPD3 180829Z 20008KT 07/01 A2992 RMK A01 T00660012  RH  068%=      5-min Rain = 0
KPD3 180830Z 19009KT 07/01 A2992 RMK A01 T00660012  RH  068%=      5-min Rain = 0
KPD3 180831Z 19010KT 07/01 A2991 RMK A01 T00650012  RH  069%=      5-min Rain = 0
KPD3 180832Z 20009KT 06/01 A2991 RMK A01 T00620011  RH  070%=      5-min Rain = 0
KPD3 180833Z 19010KT 06/01 A2991 RMK A01 T00610011  RH  070%=      5-min Rain = 0
KPD3 180834Z 20010KT 06/01 A2991 RMK A01 T00630011  RH  069%=      5-min Rain = 0
KPD3 180835Z 19009KT 07/01 A2991 RMK A01 T00660011  RH  068%=      5-min Rain = 0
KPD3 180836Z 19009KT 07/01 A2991 RMK A01 T00660011  RH  068%=      5-min Rain = 0
KPD3 180837Z 19010KT 06/01 A2991 RMK A01 T00640010  RH  068%=      5-min Rain = 0
KPD3 180838Z 19010KT 06/01 A2991 RMK A01 T00630010  RH  069%=      5-min Rain = 0
KPD3 180839Z 19010KT 06/01 A2991 RMK A01 T00630009  RH  068%=      5-min Rain = 0
KPD3 180840Z 19011KT 06/01 A299 RMK A01 T00630009  RH  068%=      5-min Rain = 0
KPD3 180841Z 19011KT 06/01 A299 RMK A01 T00630009  RH  068%=      5-min Rain = 0
KPD3 180842Z 20010KT 07/01 A299 RMK A01 T00650009  RH  067%=      5-min Rain = 0
KPD3 180843Z 20011KT 07/01 A299 RMK A01 T00660008  RH  067%=      5-min Rain = 0
KPD3 180844Z 20012KT 07/01 A299 RMK A01 T00680008  RH  065%=      5-min Rain = 0
KPD3 180845Z 21012KT 07/01 A299 RMK A01 T00730008  RH  064%=      5-min Rain = 0
KPD3 180846Z 21011KT 08/01 A299 RMK A01 T00750008  RH  062%=      5-min Rain = 0
KPD3 180847Z 21012KT 08/01 A2991 RMK A01 T00750007  RH  062%=      5-min Rain = 0
KPD3 180848Z 21013KT 08/01 A2991 RMK A01 T00760007  RH  062%=      5-min Rain = 0
KPD3 180849Z 20011KT 08/01 A2991 RMK A01 T00770007  RH  061%=      5-min Rain = 0
KPD3 180850Z 20010KT 08/01 A2991 RMK A01 T00760008  RH  062%=      5-min Rain = 0
KPD3 180851Z 20009KT 07/01 A2991 RMK A01 T00740007  RH  063%=      5-min Rain = 0
KPD3 180852Z 20010KT 07/01 A2991 RMK A01 T00710006  RH  063%=      5-min Rain = 0
KPD3 180853Z 20010KT 07/01 A2991 RMK A01 T00690006  RH  064%=      5-min Rain = 0
KPD3 180854Z 20009KT 07/01 A2991 RMK A01 T00670005  RH  064%=      5-min Rain = 0
KPD3 180855Z 20009KT 07/01 A2991 RMK A01 T00670005  RH  065%=      5-min Rain = 0
KPD3 180856Z 20009KT 07/00 A2991 RMK A01 T00660004  RH  065%=      5-min Rain = 0
KPD3 180857Z 20009KT 07/00 A2991 RMK A01 T00650003  RH  065%=      5-min Rain = 0
KPD3 180858Z 20009KT 07/00 A2991 RMK A01 T00650003  RH  065%=      5-min Rain = 0
KPD3 180859Z 20009KT 07/00 A2991 RMK A01 T00650004  RH  065%=      5-min Rain = 0
KPD3 180900Z 20009KT 07/00 A2991 RMK A01 T00660004  RH  065%=      5-min Rain = 0
KPD3 180901Z 20010KT 07/00 A299 RMK A01 T00670004  RH  064%=      5-min Rain = 0
KPD3 180902Z 20010KT 07/00 A299 RMK A01 T00660003  RH  064%=      5-min Rain = 0
KPD3 180903Z 20010KT 07/00 A299 RMK A01 T00660003  RH  064%=      5-min Rain = 0
KPD3 180904Z 20010KT 07/00 A299 RMK A01 T00660002  RH  064%=      5-min Rain = 0
KPD3 180905Z 20010KT 07/00 A299 RMK A01 T00650001  RH  064%=      5-min Rain = 0
KPD3 180906Z 20011KT 06/00 A2989 RMK A01 T00640001  RH  064%=      5-min Rain = 0
KPD3 180907Z 19010KT 06/00 A2989 RMK A01 T00630001  RH  064%=      5-min Rain = 0
KPD3 180908Z 19011KT 06/00 A2989 RMK A01 T00630001  RH  064%=      5-min Rain = 0
KPD3 180909Z 19010KT 06/00 A2989 RMK A01 T00640001  RH  064%=      5-min Rain = 0
KPD3 180910Z 19010KT 06/00 A2989 RMK A01 T00640001  RH  064%=      5-min Rain = 0
KPD3 180911Z 19011KT 06/00 A2989 RMK A01 T00630000  RH  064%=      5-min Rain = 0
KPD3 180912Z 19011KT 06/00 A2989 RMK A01 T00630001  RH  064%=      5-min Rain = 0
KPD3 180913Z 19011KT 06/00 A2989 RMK A01 T00630001  RH  064%=      5-min Rain = 0
KPD3 180914Z 20011KT 06/00 A2989 RMK A01 T00640001  RH  064%=      5-min Rain = 0
KPD3 180915Z 20011KT 06/00 A2989 RMK A01 T00630000  RH  064%=      5-min Rain = 0
KPD3 180916Z 20011KT 06/00 A2989 RMK A01 T00630000  RH  064%=      5-min Rain = 0
KPD3 180917Z 20011KT 06/M00 A2989 RMK A01 T00621001  RH  064%=      5-min Rain = 0
KPD3 180918Z 20011KT 06/M00 A2989 RMK A01 T00621001  RH  064%=      5-min Rain = 0
KPD3 180919Z 20011KT 06/M00 A2989 RMK A01 T00631001  RH  064%=      5-min Rain = 0
KPD3 180920Z 20011KT 06/M00 A2989 RMK A01 T00631001  RH  064%=      5-min Rain = 0
KPD3 180921Z 20011KT 06/M00 A2988 RMK A01 T00621001  RH  064%=      5-min Rain = 0
KPD3 180922Z 19011KT 06/M00 A2988 RMK A01 T00621002  RH  064%=      5-min Rain = 0
KPD3 180923Z 19010KT 06/M00 A2988 RMK A01 T00621002  RH  064%=      5-min Rain = 0
KPD3 180924Z 19010KT 06/M00 A2988 RMK A01 T00621002  RH  064%=      5-min Rain = 0
KPD3 180925Z 19010KT 06/M00 A2988 RMK A01 T00611002  RH  064%=      5-min Rain = 0
KPD3 180926Z 20010KT 06/M00 A2988 RMK A01 T00611002  RH  064%=      5-min Rain = 0
KPD3 180927Z 20010KT 06/M00 A2988 RMK A01 T00601003  RH  064%=      5-min Rain = 0
KPD3 180928Z 20010KT 06/M00 A2988 RMK A01 T00591003  RH  064%=      5-min Rain = 0
KPD3 180929Z 20009KT 06/M00 A2988 RMK A01 T00591003  RH  064%=      5-min Rain = 0
KPD3 180930Z 20009KT 06/M00 A2988 RMK A01 T00591003  RH  064%=      5-min Rain = 0
KPD3 180931Z 19009KT 06/M00 A2988 RMK A01 T00581004  RH  065%=      5-min Rain = 0
KPD3 180932Z 19009KT 06/M01 A2988 RMK A01 T00571005  RH  065%=      5-min Rain = 0
KPD3 180933Z 19009KT 06/M01 A2988 RMK A01 T00561005  RH  065%=      5-min Rain = 0
KPD3 180934Z 19010KT 06/M01 A2988 RMK A01 T00551005  RH  065%=      5-min Rain = 0
KPD3 180935Z 19009KT 06/M01 A2988 RMK A01 T00551005  RH  065%=      5-min Rain = 0
KPD3 180936Z 20008KT 06/M01 A2988 RMK A01 T00561005  RH  065%=      5-min Rain = 0
KPD3 180937Z 20008KT 06/M01 A2988 RMK A01 T00571005  RH  064%=      5-min Rain = 0
KPD3 180938Z 20006KT 06/M01 A2988 RMK A01 T00571006  RH  064%=      5-min Rain = 0
KPD3 180939Z 19007KT 06/M01 A2988 RMK A01 T00561007  RH  064%=      5-min Rain = 0
KPD3 180940Z 19008KT 06/M01 A2988 RMK A01 T00551007  RH  064%=      5-min Rain = 0
KPD3 180941Z 19008KT 05/M01 A2988 RMK A01 T00531008  RH  065%=      5-min Rain = 0
KPD3 180942Z 19008KT 05/M01 A2987 RMK A01 T00511008  RH  066%=      5-min Rain = 0
KPD3 180943Z 19008KT 05/M01 A2988 RMK A01 T00501008  RH  066%=      5-min Rain = 0
KPD3 180944Z 20007KT 05/M01 A2988 RMK A01 T00491008  RH  066%=      5-min Rain = 0
KPD3 180945Z 20007KT 05/M01 A2988 RMK A01 T00491009  RH  066%=      5-min Rain = 0
KPD3 180946Z 20007KT 05/M01 A2988 RMK A01 T00491009  RH  067%=      5-min Rain = 0
KPD3 180947Z 20007KT 05/M01 A2987 RMK A01 T00491008  RH  067%=      5-min Rain = 0
KPD3 180948Z 19006KT 05/M01 A2987 RMK A01 T00491008  RH  066%=      5-min Rain = 0
KPD3 180949Z 19006KT 05/M01 A2987 RMK A01 T00501008  RH  066%=      5-min Rain = 0
KPD3 180950Z 19006KT 05/M01 A2987 RMK A01 T00501009  RH  066%=      5-min Rain = 0
KPD3 180951Z 19005KT 05/M01 A2987 RMK A01 T00471011  RH  066%=      5-min Rain = 0
KPD3 180952Z 19004KT 05/M01 A2987 RMK A01 T00451013  RH  066%=      5-min Rain = 0
KPD3 180953Z 22001KT 04/M02 A2987 RMK A01 T00421016  RH  066%=      5-min Rain = 0
KPD3 180954Z 20003KT 04/M01 A2987 RMK A01 T00401013  RH  069%=      5-min Rain = 0
KPD3 180955Z 20002KT 04/M01 A2987 RMK A01 T00421008  RH  070%=      5-min Rain = 0
KPD3 180956Z 17004KT 05/M01 A2987 RMK A01 T00461007  RH  068%=      5-min Rain = 0
KPD3 180957Z 16004KT 05/M01 A2987 RMK A01 T00481007  RH  067%=      5-min Rain = 0
KPD3 180958Z 16004KT 05/M01 A2987 RMK A01 T00511007  RH  066%=      5-min Rain = 0
KPD3 180959Z 16003KT 05/M01 A2987 RMK A01 T00521008  RH  065%=      5-min Rain = 0
KPD3 181000Z 15002KT 05/M01 A2987 RMK A01 T00521009  RH  065%=      5-min Rain = 0
KPD3 181001Z 15004KT 05/M01 A2987 RMK A01 T00521008  RH  065%=      5-min Rain = 0
KPD3 181002Z 15004KT 05/M01 A2987 RMK A01 T00531008  RH  065%=      5-min Rain = 0
KPD3 181003Z 15004KT 05/M01 A2987 RMK A01 T00531009  RH  064%=      5-min Rain = 0
KPD3 181004Z 16004KT 05/M01 A2987 RMK A01 T00531009  RH  064%=      5-min Rain = 0
KPD3 181005Z 16004KT 05/M01 A2987 RMK A01 T00531009  RH  064%=      5-min Rain = 0
KPD3 181006Z 15003KT 05/M01 A2987 RMK A01 T00511011  RH  064%=      5-min Rain = 0
KPD3 181007Z 14004KT 05/M01 A2987 RMK A01 T00501011  RH  065%=      5-min Rain = 0
KPD3 181008Z 14004KT 05/M01 A2987 RMK A01 T00481012  RH  065%=      5-min Rain = 0
KPD3 181009Z 15004KT 05/M01 A2987 RMK A01 T00451013  RH  066%=      5-min Rain = 0
KPD3 181010Z 15004KT 04/M02 A2987 RMK A01 T00421015  RH  067%=      5-min Rain = 0
KPD3 181011Z 14004KT 04/M01 A2987 RMK A01 T00401014  RH  068%=      5-min Rain = 0
KPD3 181012Z 13004KT 04/M01 A2986 RMK A01 T00391013  RH  069%=      5-min Rain = 0
KPD3 181013Z 14004KT 04/M02 A2986 RMK A01 T00361015  RH  069%=      5-min Rain = 0
KPD3 181014Z 13003KT 03/M02 A2986 RMK A01 T00341015  RH  070%=      5-min Rain = 0
KPD3 181015Z 13003KT 03/M02 A2986 RMK A01 T00331015  RH  071%=      5-min Rain = 0
KPD3 181016Z 14002KT 03/M01 A2986 RMK A01 T00331013  RH  072%=      5-min Rain = 0
KPD3 181017Z 13003KT 03/M01 A2986 RMK A01 T00341011  RH  072%=      5-min Rain = 0
KPD3 181018Z 14003KT 04/M01 A2986 RMK A01 T00371010  RH  071%=      5-min Rain = 0
KPD3 181019Z 14002KT 04/M01 A2986 RMK A01 T00391010  RH  071%=      5-min Rain = 0
KPD3 181020Z 16003KT 04/M01 A2986 RMK A01 T00411008  RH  070%=      5-min Rain = 0
KPD3 181021Z 16003KT 05/M01 A2986 RMK A01 T00461005  RH  070%=      5-min Rain = 0
KPD3 181022Z 16003KT 05/M00 A2986 RMK A01 T00511004  RH  068%=      5-min Rain = 0
KPD3 181023Z 15004KT 05/M01 A2986 RMK A01 T00521010  RH  064%=      5-min Rain = 0
KPD3 181024Z 16005KT 05/M02 A2985 RMK A01 T00461017  RH  064%=      5-min Rain = 0
KPD3 181025Z 18003KT 04/M01 A2985 RMK A01 T00421014  RH  067%=      5-min Rain = 0
KPD3 181026Z 17003KT 04/M01 A2985 RMK A01 T00421011  RH  069%=      5-min Rain = 0
KPD3 181027Z 19004KT 04/M01 A2985 RMK A01 T00441008  RH  069%=      5-min Rain = 0
KPD3 181028Z 20005KT 05/M01 A2985 RMK A01 T00491006  RH  067%=      5-min Rain = 0
KPD3 181029Z 19006KT 06/M01 A2985 RMK A01 T00551006  RH  065%=      5-min Rain = 0
KPD3 181030Z 17006KT 06/M01 A2984 RMK A01 T00581005  RH  064%=      5-min Rain = 0
KPD3 181031Z 17006KT 06/M01 A2984 RMK A01 T00551007  RH  064%=      5-min Rain = 0
KPD3 181032Z 18005KT 05/M01 A2984 RMK A01 T00511011  RH  065%=      5-min Rain = 0
KPD3 181033Z 18005KT 05/M01 A2984 RMK A01 T00491009  RH  066%=      5-min Rain = 0
KPD3 181034Z 19005KT 05/M01 A2984 RMK A01 T00511007  RH  066%=      5-min Rain = 0
KPD3 181035Z 23006KT 05/M01 A2984 RMK A01 T00531005  RH  066%=      5-min Rain = 0
KPD3 181036Z 20005KT 06/M00 A2984 RMK A01 T00611002  RH  064%=      5-min Rain = 0
KPD3 181037Z 20004KT 06/M01 A2984 RMK A01 T00631005  RH  062%=      5-min Rain = 0
KPD3 181038Z 20004KT 06/M01 A2984 RMK A01 T00621005  RH  062%=      5-min Rain = 0
KPD3 181039Z 20004KT 06/M01 A2984 RMK A01 T00631005  RH  062%=      5-min Rain = 0
KPD3 181040Z 20006KT 06/M01 A2984 RMK A01 T00621005  RH  062%=      5-min Rain = 0
KPD3 181041Z 20006KT 06/M00 A2984 RMK A01 T00641004  RH  062%=      5-min Rain = 0
KPD3 181042Z 20006KT 06/M01 A2984 RMK A01 T00641005  RH  061%=      5-min Rain = 0
KPD3 181043Z 19007KT 06/M01 A2983 RMK A01 T00631005  RH  062%=      5-min Rain = 0
KPD3 181044Z 19007KT 06/M01 A2983 RMK A01 T00631005  RH  062%=      5-min Rain = 0
KPD3 181045Z 21008KT 06/M01 A2983 RMK A01 T00611007  RH  062%=      5-min Rain = 0
KPD3 181046Z 23007KT 06/M01 A2984 RMK A01 T00601007  RH  062%=      5-min Rain = 0
KPD3 181047Z 20007KT 06/M00 A2983 RMK A01 T00641003  RH  062%=      5-min Rain = 0
KPD3 181048Z 21007KT 07/M00 A2983 RMK A01 T00691003  RH  060%=      5-min Rain = 0
KPD3 181049Z 20007KT 07/M00 A2983 RMK A01 T00691004  RH  060%=      5-min Rain = 0
KPD3 181050Z 20006KT 07/M01 A2983 RMK A01 T00661006  RH  060%=      5-min Rain = 0
KPD3 181051Z 20007KT 06/M01 A2983 RMK A01 T00641005  RH  061%=      5-min Rain = 0
KPD3 181052Z 20006KT 06/M01 A2983 RMK A01 T00631005  RH  062%=      5-min Rain = 0
KPD3 181053Z 20007KT 06/M01 A2983 RMK A01 T00611005  RH  062%=      5-min Rain = 0
KPD3 181054Z 20007KT 06/M01 A2983 RMK A01 T00611005  RH  063%=      5-min Rain = 0
KPD3 181055Z 21007KT 06/M01 A2983 RMK A01 T00621005  RH  062%=      5-min Rain = 0
KPD3 181056Z 21006KT 06/M00 A2983 RMK A01 T00641004  RH  062%=      5-min Rain = 0
KPD3 181057Z 21007KT 07/M00 A2983 RMK A01 T00661004  RH  061%=      5-min Rain = 0
KPD3 181058Z 20007KT 07/M00 A2983 RMK A01 T00671004  RH  060%=      5-min Rain = 0
KPD3 181059Z 20007KT 07/M01 A2982 RMK A01 T00671005  RH  060%=      5-min Rain = 0
KPD3 181100Z 21006KT 07/M01 A2982 RMK A01 T00671005  RH  060%=      5-min Rain = 0
KPD3 181101Z 19005KT 07/M01 A2982 RMK A01 T00671005  RH  060%=      5-min Rain = 0
KPD3 181102Z 19006KT 07/M01 A2982 RMK A01 T00681005  RH  060%=      5-min Rain = 0
KPD3 181103Z 20007KT 07/M01 A2981 RMK A01 T00691005  RH  059%=      5-min Rain = 0
KPD3 181104Z 19006KT 07/M01 A2981 RMK A01 T00671006  RH  060%=      5-min Rain = 0
KPD3 181105Z 19005KT 07/M01 A2981 RMK A01 T00651006  RH  061%=      5-min Rain = 0
KPD3 181106Z 19005KT 06/M01 A2981 RMK A01 T00641005  RH  061%=      5-min Rain = 0
KPD3 181107Z 19006KT 07/M01 A2981 RMK A01 T00651005  RH  061%=      5-min Rain = 0
KPD3 181108Z 20006KT 07/M01 A2981 RMK A01 T00651005  RH  061%=      5-min Rain = 0
KPD3 181109Z 21006KT 07/M01 A2982 RMK A01 T00651005  RH  061%=      5-min Rain = 0
KPD3 181110Z 22006KT 06/M01 A2982 RMK A01 T00631008  RH  061%=      5-min Rain = 0
KPD3 181111Z 21006KT 06/M01 A2982 RMK A01 T00621007  RH  061%=      5-min Rain = 0
KPD3 181112Z 20006KT 06/M01 A2982 RMK A01 T00611007  RH  061%=      5-min Rain = 0
KPD3 181113Z 20005KT 06/M01 A2982 RMK A01 T00601009  RH  062%=      5-min Rain = 0
KPD3 181114Z 22005KT 06/M01 A2982 RMK A01 T00581010  RH  062%=      5-min Rain = 0
KPD3 181115Z 22004KT 06/M01 A2982 RMK A01 T00561010  RH  063%=      5-min Rain = 0
KPD3 181116Z 23004KT 06/M01 A2982 RMK A01 T00551010  RH  063%=      5-min Rain = 0
KPD3 181117Z 19004KT 06/M01 A2981 RMK A01 T00551010  RH  063%=      5-min Rain = 0
KPD3 181118Z 20005KT 06/M01 A2981 RMK A01 T00571008  RH  063%=      5-min Rain = 0
KPD3 181119Z 18007G12KT 06/M01 A2981 RMK A01 T00581009  RH  062%=      5-min Rain = 0
KPD3 181120Z 22007G13KT 07/M01 A2981 RMK A01 T00661007  RH  060%=      5-min Rain = 0
KPD3 181121Z 22006KT 08/M01 A2981 RMK A01 T00801005  RH  055%=      5-min Rain = 0
KPD3 181122Z 20004KT 08/M01 A2981 RMK A01 T00841006  RH  053%=      5-min Rain = 0
KPD3 181123Z 19002KT 08/M01 A298 RMK A01 T00781011  RH  053%=      5-min Rain = 0
KPD3 181124Z 22003KT 07/M01 A298 RMK A01 T00731012  RH  055%=      5-min Rain = 0
KPD3 181125Z 23005KT 07/M01 A298 RMK A01 T00721011  RH  056%=      5-min Rain = 0
KPD3 181126Z 23005KT 07/M01 A298 RMK A01 T00741010  RH  055%=      5-min Rain = 0
KPD3 181127Z 22004KT 08/M01 A298 RMK A01 T00761009  RH  055%=      5-min Rain = 0
KPD3 181128Z 20005KT 08/M01 A298 RMK A01 T00751010  RH  055%=      5-min Rain = 0
KPD3 181129Z 23006KT 07/M01 A298 RMK A01 T00721012  RH  055%=      5-min Rain = 0
KPD3 181130Z 22005KT 07/M01 A298 RMK A01 T00731010  RH  056%=      5-min Rain = 0
KPD3 181131Z 21004KT 07/M01 A298 RMK A01 T00741009  RH  056%=      5-min Rain = 0
KPD3 181132Z 22004KT 08/M01 A298 RMK A01 T00761009  RH  055%=      5-min Rain = 0
KPD3 181133Z 21007KT 08/M01 A298 RMK A01 T00781009  RH  054%=      5-min Rain = 0
KPD3 181134Z 18004KT 08/M01 A2979 RMK A01 T00841008  RH  052%=      5-min Rain = 0
KPD3 181135Z 20005KT 09/M01 A2979 RMK A01 T00861009  RH  051%=      5-min Rain = 0
KPD3 181136Z 18003KT 09/M01 A2979 RMK A01 T00851010  RH  051%=      5-min Rain = 0
KPD3 181137Z 16005KT 09/M01 A2979 RMK A01 T00851010  RH  051%=      5-min Rain = 0
KPD3 181138Z 18003KT 08/M01 A2979 RMK A01 T00841010  RH  052%=      5-min Rain = 0
KPD3 181139Z 13002KT 08/M01 A2979 RMK A01 T00841010  RH  052%=      5-min Rain = 0
KPD3 181140Z 15003KT 08/M01 A2979 RMK A01 T00841010  RH  052%=      5-min Rain = 0
KPD3 181141Z 16001KT 08/M01 A2978 RMK A01 T00831010  RH  052%=      5-min Rain = 0
KPD3 181142Z 16003KT 08/M01 A2978 RMK A01 T00831010  RH  052%=      5-min Rain = 0
KPD3 181143Z 16003KT 08/M01 A2978 RMK A01 T00821010  RH  052%=      5-min Rain = 0
KPD3 181144Z 16004KT 08/M01 A2978 RMK A01 T00791011  RH  053%=      5-min Rain = 0
KPD3 181145Z 21004KT 08/M01 A2978 RMK A01 T00791012  RH  052%=      5-min Rain = 0
KPD3 181146Z 19004KT 08/M01 A2978 RMK A01 T00811012  RH  052%=      5-min Rain = 0
KPD3 181147Z 17004KT 08/M01 A2978 RMK A01 T00831012  RH  051%=      5-min Rain = 0
KPD3 181148Z 18003KT 08/M01 A2977 RMK A01 T00831012  RH  051%=      5-min Rain = 0
KPD3 181149Z 16003KT 08/M01 A2977 RMK A01 T00831012  RH  051%=      5-min Rain = 0
KPD3 181150Z 16004KT 08/M01 A2977 RMK A01 T00821012  RH  051%=      5-min Rain = 0
KPD3 181151Z 16005KT 08/M01 A2977 RMK A01 T00811012  RH  052%=      5-min Rain = 0
KPD3 181152Z 17006KT 08/M01 A2977 RMK A01 T00781011  RH  053%=      5-min Rain = 0
KPD3 181153Z 18006KT 07/M01 A2977 RMK A01 T00741011  RH  055%=      5-min Rain = 0
KPD3 181154Z 17006KT 07/M01 A2977 RMK A01 T00701010  RH  057%=      5-min Rain = 0
KPD3 181155Z 16006KT 07/M01 A2977 RMK A01 T00681008  RH  058%=      5-min Rain = 0
KPD3 181156Z 18006KT 07/M01 A2977 RMK A01 T00661007  RH  060%=      5-min Rain = 0
KPD3 181157Z 19006KT 07/M01 A2977 RMK A01 T00661009  RH  059%=      5-min Rain = 0
KPD3 181158Z 19006KT 07/M01 A2977 RMK A01 T00701008  RH  058%=      5-min Rain = 0
KPD3 181159Z 18006KT 07/M01 A2977 RMK A01 T00721008  RH  057%=      5-min Rain = 0
KPD3 181200Z 16007KT 07/M01 A2977 RMK A01 T00731009  RH  056%=      5-min Rain = 0
KPD3 181201Z 15008KT 07/M01 A2977 RMK A01 T00711009  RH  057%=      5-min Rain = 0
KPD3 181202Z 14008KT 07/M01 A2977 RMK A01 T00681009  RH  058%=      5-min Rain = 0
KPD3 181203Z 15008KT 07/M01 A2977 RMK A01 T00651008  RH  060%=      5-min Rain = 0
KPD3 181204Z 15007KT 06/M01 A2977 RMK A01 T00631008  RH  060%=      5-min Rain = 0
KPD3 181205Z 16008KT 06/M01 A2977 RMK A01 T00641007  RH  061%=      5-min Rain = 0
KPD3 181206Z 16007KT 06/M01 A2977 RMK A01 T00641007  RH  060%=      5-min Rain = 0
KPD3 181207Z 16007KT 06/M01 A2977 RMK A01 T00641007  RH  061%=      5-min Rain = 0
KPD3 181208Z 17008KT 06/M01 A2977 RMK A01 T00631007  RH  061%=      5-min Rain = 0
KPD3 181209Z 18008KT 06/M01 A2977 RMK A01 T00621008  RH  061%=      5-min Rain = 0
KPD3 181210Z 16008KT 06/M01 A2977 RMK A01 T00621008  RH  061%=      5-min Rain = 0
KPD3 181211Z 16006KT 06/M01 A2977 RMK A01 T00631009  RH  060%=      5-min Rain = 0
KPD3 181212Z 19007KT 07/M01 A2977 RMK A01 T00671008  RH  059%=      5-min Rain = 0
KPD3 181213Z 18005KT 07/M01 A2977 RMK A01 T00701008  RH  058%=      5-min Rain = 0
KPD3 181214Z 18006KT 07/M01 A2977 RMK A01 T00711008  RH  057%=      5-min Rain = 0
KPD3 181215Z 17007KT 07/M01 A2977 RMK A01 T00731009  RH  056%=      5-min Rain = 0
KPD3 181216Z 18007KT 08/M01 A2977 RMK A01 T00761008  RH  055%=      5-min Rain = 0
KPD3 181217Z 17008KT 08/M01 A2976 RMK A01 T00781007  RH  055%=      5-min Rain = 0
KPD3 181218Z 17006KT 08/M01 A2976 RMK A01 T00791008  RH  054%=      5-min Rain = 0
KPD3 181219Z 17008KT 08/M01 A2976 RMK A01 T00801008  RH  054%=      5-min Rain = 0
KPD3 181220Z 17008KT 08/M01 A2976 RMK A01 T00811007  RH  054%=      5-min Rain = 0
KPD3 181221Z 17009KT 08/M01 A2976 RMK A01 T00811006  RH  054%=      5-min Rain = 0
KPD3 181222Z 16008KT 08/M01 A2976 RMK A01 T00791007  RH  054%=      5-min Rain = 0
KPD3 181223Z 16008KT 08/M01 A2976 RMK A01 T00781006  RH  055%=      5-min Rain = 0
KPD3 181224Z 16006KT 08/M01 A2976 RMK A01 T00761007  RH  056%=      5-min Rain = 0
KPD3 181225Z 17005KT 08/M01 A2977 RMK A01 T00751008  RH  056%=      5-min Rain = 0
KPD3 181226Z 15004KT 07/M01 A2977 RMK A01 T00741008  RH  056%=      5-min Rain = 0
KPD3 181227Z 14006KT 07/M01 A2976 RMK A01 T00711008  RH  057%=      5-min Rain = 0
KPD3 181228Z 13006KT 07/M01 A2976 RMK A01 T00691008  RH  058%=      5-min Rain = 0
KPD3 181229Z 14006KT 07/M01 A2977 RMK A01 T00661008  RH  059%=      5-min Rain = 0
KPD3 181230Z 13006KT 06/M01 A2977 RMK A01 T00641007  RH  060%=      5-min Rain = 0
KPD3 181231Z 13007KT 06/M01 A2977 RMK A01 T00631007  RH  061%=      5-min Rain = 0
KPD3 181232Z 13007KT 06/M01 A2976 RMK A01 T00611007  RH  062%=      5-min Rain = 0
KPD3 181233Z 13007KT 06/M01 A2976 RMK A01 T00601006  RH  062%=      5-min Rain = 0
KPD3 181234Z 13007KT 06/M01 A2976 RMK A01 T00591006  RH  063%=      5-min Rain = 0
KPD3 181235Z 13007KT 06/M01 A2976 RMK A01 T00591006  RH  063%=      5-min Rain = 0
KPD3 181236Z 13007KT 06/M01 A2976 RMK A01 T00601005  RH  063%=      5-min Rain = 0
KPD3 181237Z 13007KT 06/M01 A2976 RMK A01 T00601005  RH  063%=      5-min Rain = 0
KPD3 181238Z 13008KT 06/M00 A2976 RMK A01 T00591004  RH  064%=      5-min Rain = 0
KPD3 181239Z 13008KT 06/M00 A2976 RMK A01 T00571003  RH  065%=      5-min Rain = 0
KPD3 181240Z 14007KT 06/M00 A2976 RMK A01 T00571003  RH  065%=      5-min Rain = 0
KPD3 181241Z 13008KT 06/M00 A2976 RMK A01 T00571003  RH  065%=      5-min Rain = 0
KPD3 181242Z 15009G14KT 06/M00 A2976 RMK A01 T00581003  RH  065%=      5-min Rain = 0
KPD3 181243Z 17003KT 07/M01 A2976 RMK A01 T00661006  RH  060%=      5-min Rain = 0
KPD3 181244Z 15003KT 08/M01 A2976 RMK A01 T00761006  RH  056%=      5-min Rain = 0
KPD3 181245Z 13004KT 08/M01 A2977 RMK A01 T00781006  RH  055%=      5-min Rain = 0
KPD3 181246Z 13003KT 08/M01 A2976 RMK A01 T00781006  RH  055%=      5-min Rain = 0
KPD3 181247Z 18001KT 08/M01 A2976 RMK A01 T00761006  RH  056%=      5-min Rain = 0
KPD3 181248Z 19004KT 08/M01 A2977 RMK A01 T00751007  RH  056%=      5-min Rain = 0
KPD3 181249Z 13005KT 08/M01 A2976 RMK A01 T00751007  RH  056%=      5-min Rain = 0
KPD3 181250Z 12005KT 08/M01 A2976 RMK A01 T00751007  RH  056%=      5-min Rain = 0
KPD3 181251Z 13004KT 07/M01 A2976 RMK A01 T00741006  RH  057%=      5-min Rain = 0
KPD3 181252Z 14005KT 07/M01 A2977 RMK A01 T00721005  RH  058%=      5-min Rain = 0
KPD3 181253Z 14005KT 07/M01 A2977 RMK A01 T00691005  RH  059%=      5-min Rain = 0
KPD3 181254Z 15005KT 07/M01 A2977 RMK A01 T00661005  RH  060%=      5-min Rain = 0
KPD3 181255Z 14006KT 06/M01 A2976 RMK A01 T00641006  RH  061%=      5-min Rain = 0
KPD3 181256Z 14006KT 07/M01 A2976 RMK A01 T00651005  RH  061%=      5-min Rain = 0
KPD3 181257Z 16005KT 06/M01 A2977 RMK A01 T00641005  RH  061%=      5-min Rain = 0
KPD3 181258Z 19004KT 06/M01 A2977 RMK A01 T00621005  RH  062%=      5-min Rain = 0
KPD3 181259Z 18003KT 06/M01 A2977 RMK A01 T00601005  RH  063%=      5-min Rain = 0
KPD3 181300Z 18004KT 06/M01 A2977 RMK A01 T00591005  RH  063%=      5-min Rain = 0
KPD3 181301Z 16004KT 06/M01 A2977 RMK A01 T00591005  RH  064%=      5-min Rain = 0
KPD3 181302Z 17003KT 06/M01 A2977 RMK A01 T00581005  RH  064%=      5-min Rain = 0
KPD3 181303Z 19002KT 06/M01 A2977 RMK A01 T00571006  RH  064%=      5-min Rain = 0
KPD3 181304Z 24005KT 06/M01 A2977 RMK A01 T00571006  RH  064%=      5-min Rain = 0
KPD3 181305Z 23007G13KT 06/M00 A2977 RMK A01 T00611004  RH  063%=      5-min Rain = 0
KPD3 181306Z 24011KT 08/00 A2977 RMK A01 T00770002  RH  059%=      5-min Rain = 0
KPD3 181307Z 24013KT 09/00 A2976 RMK A01 T00940003  RH  053%=      5-min Rain = 0
KPD3 181308Z 25015KT 10/00 A2976 RMK A01 T01030000  RH  049%=      5-min Rain = 0
KPD3 181309Z 24014KT 11/M00 A2976 RMK A01 T01081003  RH  046%=      5-min Rain = 0
KPD3 181310Z 24015KT 11/M00 A2976 RMK A01 T01101003  RH  045%=      5-min Rain = 0
KPD3 181311Z 24014KT 11/M00 A2976 RMK A01 T01111004  RH  045%=      5-min Rain = 0
KPD3 181312Z 24014KT 11/M00 A2976 RMK A01 T01111004  RH  045%=      5-min Rain = 0
KPD3 181313Z 24014G19KT 11/M01 A2976 RMK A01 T01111005  RH  044%=      5-min Rain = 0
KPD3 181314Z 25012KT 11/M01 A2976 RMK A01 T01121005  RH  044%=      5-min Rain = 0
KPD3 181315Z 25015KT 11/M01 A2975 RMK A01 T01121006  RH  044%=      5-min Rain = 0
KPD3 181316Z 25013KT 11/M01 A2975 RMK A01 T01131006  RH  044%=      5-min Rain = 0
KPD3 181317Z 24013KT 11/M01 A2975 RMK A01 T01131006  RH  044%=      5-min Rain = 0
KPD3 181318Z 25013KT 11/M01 A2975 RMK A01 T01131006  RH  044%=      5-min Rain = 0
KPD3 181319Z 24012KT 11/M01 A2975 RMK A01 T01131006  RH  044%=      5-min Rain = 0
KPD3 181320Z 24012KT 11/M01 A2975 RMK A01 T01121007  RH  044%=      5-min Rain = 0
KPD3 181321Z 24010KT 11/M01 A2975 RMK A01 T01101007  RH  044%=      5-min Rain = 0
KPD3 181322Z 24011G16KT 11/M01 A2975 RMK A01 T01091007  RH  044%=      5-min Rain = 0
KPD3 181323Z 24010KT 11/M01 A2975 RMK A01 T01081008  RH  045%=      5-min Rain = 0
KPD3 181324Z 24009KT 11/M01 A2975 RMK A01 T01081007  RH  045%=      5-min Rain = 0
KPD3 181325Z 24009KT 11/M01 A2975 RMK A01 T01081007  RH  045%=      5-min Rain = 0
KPD3 181326Z 24008KT 11/M01 A2975 RMK A01 T01071008  RH  045%=      5-min Rain = 0
KPD3 181327Z 24008KT 11/M01 A2975 RMK A01 T01071008  RH  045%=      5-min Rain = 0
KPD3 181328Z 24009KT 11/M01 A2975 RMK A01 T01061008  RH  045%=      5-min Rain = 0
KPD3 181329Z 25009KT 11/M01 A2975 RMK A01 T01051008  RH  045%=      5-min Rain = 0
KPD3 181330Z 24009KT 11/M01 A2975 RMK A01 T01061007  RH  045%=      5-min Rain = 0
KPD3 181331Z 24010KT 11/M01 A2975 RMK A01 T01071007  RH  045%=      5-min Rain = 0
KPD3 181332Z 24011KT 11/M01 A2975 RMK A01 T01081007  RH  045%=      5-min Rain = 0
KPD3 181333Z 23010KT 11/M01 A2975 RMK A01 T01101007  RH  044%=      5-min Rain = 0
KPD3 181334Z 24009KT 11/M01 A2975 RMK A01 T01101007  RH  044%=      5-min Rain = 0
KPD3 181335Z 24010KT 11/M01 A2975 RMK A01 T01101007  RH  044%=      5-min Rain = 0
KPD3 181336Z 24010KT 11/M01 A2975 RMK A01 T01111008  RH  044%=      5-min Rain = 0
KPD3 181337Z 24011KT 11/M01 A2975 RMK A01 T01121007  RH  044%=      5-min Rain = 0
KPD3 181338Z 23011KT 11/M01 A2975 RMK A01 T01121008  RH  043%=      5-min Rain = 0
KPD3 181339Z 24013KT 11/M01 A2975 RMK A01 T01141008  RH  043%=      5-min Rain = 0
KPD3 181340Z 24012KT 11/M01 A2975 RMK A01 T01141008  RH  043%=      5-min Rain = 0
KPD3 181341Z 23011KT 11/M01 A2975 RMK A01 T01141008  RH  043%=      5-min Rain = 0
KPD3 181342Z 23011KT 11/M01 A2975 RMK A01 T01141008  RH  043%=      5-min Rain = 0
KPD3 181343Z 23011KT 11/M01 A2975 RMK A01 T01131008  RH  043%=      5-min Rain = 0
KPD3 181344Z 23011KT 11/M01 A2975 RMK A01 T01101009  RH  044%=      5-min Rain = 0
KPD3 181345Z 23011KT 11/M01 A2975 RMK A01 T01101009  RH  044%=      5-min Rain = 0
KPD3 181346Z 23011KT 11/M01 A2975 RMK A01 T01111009  RH  043%=      5-min Rain = 0
KPD3 181347Z 23012KT 11/M01 A2975 RMK A01 T01111009  RH  043%=      5-min Rain = 0
KPD3 181348Z 23011KT 11/M01 A2975 RMK A01 T01121009  RH  043%=      5-min Rain = 0
KPD3 181349Z 23012KT 11/M01 A2975 RMK A01 T01131009  RH  043%=      5-min Rain = 0
KPD3 181350Z 23011KT 11/M01 A2975 RMK A01 T01131009  RH  043%=      5-min Rain = 0
KPD3 181351Z 23011KT 11/M01 A2975 RMK A01 T01141009  RH  042%=      5-min Rain = 0
KPD3 181352Z 23011KT 12/M01 A2975 RMK A01 T01151009  RH  042%=      5-min Rain = 0
KPD3 181353Z 24010KT 12/M01 A2975 RMK A01 T01151009  RH  042%=      5-min Rain = 0
KPD3 181354Z 24009KT 12/M01 A2975 RMK A01 T01161009  RH  042%=      5-min Rain = 0
KPD3 181355Z 24009KT 12/M01 A2975 RMK A01 T01161009  RH  042%=      5-min Rain = 0
KPD3 181356Z 24009KT 12/M01 A2975 RMK A01 T01171009  RH  042%=      5-min Rain = 0
KPD3 181357Z 23009KT 12/M01 A2975 RMK A01 T01181008  RH  042%=      5-min Rain = 0
KPD3 181358Z 24009KT 12/M01 A2974 RMK A01 T01181009  RH  041%=      5-min Rain = 0
KPD3 181359Z 24008KT 12/M01 A2974 RMK A01 T01191009  RH  041%=      5-min Rain = 0
KPD3 181400Z 24008KT 12/M01 A2974 RMK A01 T01191009  RH  041%=      5-min Rain = 0
KPD3 181401Z 24009KT 12/M01 A2974 RMK A01 T01201009  RH  041%=      5-min Rain = 0
KPD3 181402Z 24009KT 12/M01 A2975 RMK A01 T01191008  RH  041%=      5-min Rain = 0
KPD3 181403Z 24010KT 12/M01 A2974 RMK A01 T01191009  RH  041%=      5-min Rain = 0
KPD3 181404Z 24011KT 12/M01 A2974 RMK A01 T01201009  RH  041%=      5-min Rain = 0
KPD3 181405Z 24011KT 12/M01 A2974 RMK A01 T01211009  RH  041%=      5-min Rain = 0
KPD3 181406Z 24012KT 12/M01 A2974 RMK A01 T01221009  RH  040%=      5-min Rain = 0
KPD3 181407Z 24012KT 12/M01 A2974 RMK A01 T01231008  RH  040%=      5-min Rain = 0
KPD3 181408Z 24011KT 12/M01 A2974 RMK A01 T01241008  RH  040%=      5-min Rain = 0
KPD3 181409Z 24012KT 12/M01 A2974 RMK A01 T01231008  RH  040%=      5-min Rain = 0
KPD3 181410Z 24011KT 12/M01 A2974 RMK A01 T01231008  RH  040%=      5-min Rain = 0
KPD3 181411Z 24013G18KT 12/M01 A2974 RMK A01 T01231008  RH  040%=      5-min Rain = 0
KPD3 181412Z 24014KT 12/M01 A2974 RMK A01 T01241009  RH  040%=      5-min Rain = 0
KPD3 181413Z 24015KT 13/M01 A2974 RMK A01 T01261009  RH  039%=      5-min Rain = 0
KPD3 181414Z 24013KT 13/M01 A2974 RMK A01 T01271009  RH  039%=      5-min Rain = 0
KPD3 181415Z 25014KT 13/M01 A2974 RMK A01 T01271009  RH  039%=      5-min Rain = 0
KPD3 181416Z 24013KT 13/M01 A2974 RMK A01 T01261009  RH  039%=      5-min Rain = 0
KPD3 181417Z 25014KT 13/M01 A2974 RMK A01 T01261009  RH  039%=      5-min Rain = 0
KPD3 181418Z 25014KT 13/M01 A2974 RMK A01 T01261009  RH  039%=      5-min Rain = 0
KPD3 181419Z 24014KT 13/M01 A2974 RMK A01 T01261010  RH  039%=      5-min Rain = 0
KPD3 181420Z 24013KT 13/M01 A2974 RMK A01 T01261010  RH  039%=      5-min Rain = 0
KPD3 181421Z 24013KT 13/M01 A2974 RMK A01 T01261009  RH  039%=      5-min Rain = 0
KPD3 181422Z 24013KT 13/M01 A2974 RMK A01 T01261008  RH  039%=      5-min Rain = 0
KPD3 181423Z 24013KT 13/M01 A2974 RMK A01 T01251009  RH  039%=      5-min Rain = 0
KPD3 181424Z 24013KT 13/M01 A2974 RMK A01 T01251009  RH  039%=      5-min Rain = 0
KPD3 181425Z 24014KT 13/M01 A2974 RMK A01 T01261009  RH  039%=      5-min Rain = 0
KPD3 181426Z 24014KT 13/M01 A2974 RMK A01 T01261009  RH  039%=      5-min Rain = 0
KPD3 181427Z 24014KT 13/M01 A2974 RMK A01 T01261009  RH  039%=      5-min Rain = 0
KPD3 181428Z 24014KT 13/M01 A2974 RMK A01 T01261009  RH  039%=      5-min Rain = 0
KPD3 181429Z 24013KT 13/M01 A2973 RMK A01 T01261009  RH  039%=      5-min Rain = 0
KPD3 181430Z 24014KT 13/M01 A2974 RMK A01 T01261009  RH  039%=      5-min Rain = 0
KPD3 181431Z 24015KT 13/M01 A2973 RMK A01 T01261010  RH  039%=      5-min Rain = 0
KPD3 181432Z 24013KT 13/M01 A2974 RMK A01 T01271009  RH  039%=      5-min Rain = 0
KPD3 181433Z 24013KT 13/M01 A2974 RMK A01 T01271009  RH  039%=      5-min Rain = 0
KPD3 181434Z 24011KT 13/M01 A2974 RMK A01 T01271009  RH  039%=      5-min Rain = 0
KPD3 181435Z 24011G17KT 13/M01 A2974 RMK A01 T01271008  RH  039%=      5-min Rain = 0
KPD3 181436Z 25014G20KT 13/M01 A2974 RMK A01 T01271009  RH  039%=      5-min Rain = 0
KPD3 181437Z 25015KT 13/M01 A2974 RMK A01 T01291008  RH  039%=      5-min Rain = 0
KPD3 181438Z 25015KT 13/M01 A2974 RMK A01 T01301008  RH  039%=      5-min Rain = 0
KPD3 181439Z 24014KT 13/M01 A2974 RMK A01 T01311007  RH  039%=      5-min Rain = 0
KPD3 181440Z 24013KT 13/M01 A2974 RMK A01 T01311007  RH  038%=      5-min Rain = 0
KPD3 181441Z 24015KT 13/M01 A2974 RMK A01 T01321007  RH  038%=      5-min Rain = 0
KPD3 181442Z 25015KT 13/M01 A2973 RMK A01 T01321007  RH  038%=      5-min Rain = 0
KPD3 181443Z 25014KT 13/M01 A2973 RMK A01 T01331006  RH  038%=      5-min Rain = 0
KPD3 181444Z 25017KT 13/M01 A2973 RMK A01 T01341007  RH  038%=      5-min Rain = 0
KPD3 181445Z 25018KT 14/M01 A2973 RMK A01 T01351006  RH  038%=      5-min Rain = 0
KPD3 181446Z 25019KT 14/M01 A2973 RMK A01 T01361006  RH  038%=      5-min Rain = 0
KPD3 181447Z 25020G26KT 14/M01 A2973 RMK A01 T01371007  RH  037%=      5-min Rain = 0
KPD3 181448Z 24020KT 14/M01 A2973 RMK A01 T01381007  RH  037%=      5-min Rain = 0
KPD3 181449Z 25017KT 14/M01 A2973 RMK A01 T01381006  RH  037%=      5-min Rain = 0
KPD3 181450Z 25016KT 14/M01 A2973 RMK A01 T01371007  RH  037%=      5-min Rain = 0
KPD3 181451Z 24018KT 14/M01 A2973 RMK A01 T01361007  RH  037%=      5-min Rain = 0
KPD3 181452Z 25022G27KT 14/M01 A2973 RMK A01 T01361007  RH  037%=      5-min Rain = 0
KPD3 181453Z 25022G27KT 14/M01 A2973 RMK A01 T01371008  RH  037%=      5-min Rain = 0
KPD3 181454Z 25021KT 14/M01 A2973 RMK A01 T01371008  RH  037%=      5-min Rain = 0
KPD3 181455Z 25024KT 14/M01 A2973 RMK A01 T01371008  RH  037%=      5-min Rain = 0
KPD3 181456Z 25021G26KT 14/M01 A2973 RMK A01 T01371008  RH  037%=      5-min Rain = 0
KPD3 181457Z 25021G26KT 14/M01 A2973 RMK A01 T01371008  RH  037%=      5-min Rain = 0
KPD3 181458Z 25019KT 14/M01 A2973 RMK A01 T01371008  RH  037%=      5-min Rain = 0
KPD3 181459Z 25021KT 14/M01 A2973 RMK A01 T01361007  RH  037%=      5-min Rain = 0
KPD3 181500Z 25020KT 14/M01 A2973 RMK A01 T01371007  RH  037%=      5-min Rain = 0
KPD3 181501Z 25022G29KT 14/M01 A2972 RMK A01 T01381006  RH  037%=      5-min Rain = 0
KPD3 181502Z 25022KT 14/M01 A2972 RMK A01 T01381007  RH  037%=      5-min Rain = 0
KPD3 181503Z 25024KT 14/M01 A2972 RMK A01 T01381007  RH  037%=      5-min Rain = 0
KPD3 181504Z 26020KT 14/M01 A2972 RMK A01 T01381006  RH  037%=      5-min Rain = 0
KPD3 181505Z 25021KT 14/M01 A2972 RMK A01 T01371006  RH  037%=      5-min Rain = 0
KPD3 181506Z 25025KT 14/M01 A2972 RMK A01 T01381006  RH  037%=      5-min Rain = 0
KPD3 181507Z 25023G28KT 14/M01 A2972 RMK A01 T01391005  RH  037%=      5-min Rain = 0
KPD3 181508Z 25021G27KT 14/M01 A2972 RMK A01 T01401005  RH  037%=      5-min Rain = 0
KPD3 181509Z 25019KT 14/M01 A2972 RMK A01 T01401005  RH  037%=      5-min Rain = 0
KPD3 181510Z 26023G28KT 14/M00 A2972 RMK A01 T01401004  RH  037%=      5-min Rain = 0
KPD3 181511Z 25021KT 14/M00 A2972 RMK A01 T01411004  RH  037%=      5-min Rain = 0
KPD3 181512Z 26025KT 14/M00 A2972 RMK A01 T01411004  RH  037%=      5-min Rain = 0
KPD3 181513Z 26022KT 14/M01 A2972 RMK A01 T01411005  RH  037%=      5-min Rain = 0
KPD3 181514Z 25018KT 14/M00 A2973 RMK A01 T01421002  RH  037%=      5-min Rain = 0
KPD3 181515Z 25019KT 14/M00 A2973 RMK A01 T01441001  RH  037%=      5-min Rain = 0
KPD3 181516Z 25018G23KT 15/M00 A2973 RMK A01 T01451001  RH  037%=      5-min Rain = 0
KPD3 181517Z 25019KT 15/M00 A2973 RMK A01 T01461001  RH  037%=      5-min Rain = 0
KPD3 181518Z 25018KT 15/M00 A2973 RMK A01 T01461001  RH  037%=      5-min Rain = 0
KPD3 181519Z 25020G25KT 15/00 A2973 RMK A01 T014700-0  RH  036%=      5-min Rain = 0
KPD3 181520Z 26016G21KT 15/00 A2972 RMK A01 T01480001  RH  036%=      5-min Rain = 0
KPD3 181521Z 25021KT 15/00 A2972 RMK A01 T01500002  RH  036%=      5-min Rain = 0
KPD3 181522Z 25018KT 15/00 A2972 RMK A01 T01510002  RH  036%=      5-min Rain = 0
KPD3 181523Z 25020KT 15/00 A2972 RMK A01 T01510001  RH  036%=      5-min Rain = 0
KPD3 181524Z 25019G24KT 15/00 A2972 RMK A01 T01510001  RH  036%=      5-min Rain = 0
KPD3 181525Z 25020KT 15/00 A2972 RMK A01 T01510002  RH  036%=      5-min Rain = 0
KPD3 181526Z 25021G26KT 15/00 A2972 RMK A01 T01500001  RH  036%=      5-min Rain = 0
KPD3 181527Z 25022KT 15/00 A2972 RMK A01 T014800-0  RH  036%=      5-min Rain = 0
KPD3 181528Z 25023G28KT 15/00 A2972 RMK A01 T01470001  RH  037%=      5-min Rain = 0
KPD3 181529Z 25024KT 15/00 A2972 RMK A01 T01470001  RH  037%=      5-min Rain = 0
KPD3 181530Z 25022KT 15/00 A2972 RMK A01 T01470001  RH  037%=      5-min Rain = 0
KPD3 181531Z 25022KT 15/00 A2972 RMK A01 T01480003  RH  037%=      5-min Rain = 0
KPD3 181532Z 25023KT 15/00 A2972 RMK A01 T01500003  RH  037%=      5-min Rain = 0
KPD3 181533Z 25022KT 15/00 A2972 RMK A01 T01510003  RH  037%=      5-min Rain = 0
KPD3 181534Z 25021KT 15/00 A2972 RMK A01 T01510004  RH  037%=      5-min Rain = 0
KPD3 181535Z 26023KT 15/00 A2972 RMK A01 T01520003  RH  036%=      5-min Rain = 0
KPD3 181536Z 26022G27KT 15/00 A2972 RMK A01 T01520003  RH  036%=      5-min Rain = 0
KPD3 181537Z 25025KT 15/00 A2972 RMK A01 T01530003  RH  036%=      5-min Rain = 0
KPD3 181538Z 26024KT 15/00 A2972 RMK A01 T01530003  RH  036%=      5-min Rain = 0
KPD3 181539Z 26025G30KT 15/00 A2972 RMK A01 T01530003  RH  036%=      5-min Rain = 0
KPD3 181540Z 26025KT 15/00 A2972 RMK A01 T01530003  RH  036%=      5-min Rain = 0
KPD3 181541Z 25021G30KT 15/00 A2972 RMK A01 T01530004  RH  036%=      5-min Rain = 0
KPD3 181542Z 25023G28KT 15/00 A2972 RMK A01 T01530004  RH  036%=      5-min Rain = 0
KPD3 181543Z 25027G32KT 15/01 A2972 RMK A01 T01530005  RH  036%=      5-min Rain = 0
KPD3 181544Z 26025KT 15/01 A2972 RMK A01 T01540006  RH  036%=      5-min Rain = 0
KPD3 181545Z 25022KT 15/01 A2972 RMK A01 T01540006  RH  036%=      5-min Rain = 0
KPD3 181546Z 26024KT 16/01 A2972 RMK A01 T01550007  RH  037%=      5-min Rain = 0
KPD3 181547Z 26024G30KT 16/01 A2972 RMK A01 T01550007  RH  036%=      5-min Rain = 0
KPD3 181548Z 25024KT 16/01 A2972 RMK A01 T01560007  RH  036%=      5-min Rain = 0
KPD3 181549Z 25025G31KT 16/01 A2972 RMK A01 T01570008  RH  036%=      5-min Rain = 0
KPD3 181550Z 26026G31KT 16/01 A2972 RMK A01 T01580008  RH  036%=      5-min Rain = 0
KPD3 181551Z 26022KT 16/01 A2972 RMK A01 T01570008  RH  036%=      5-min Rain = 0
KPD3 181552Z 26024G30KT 16/01 A2972 RMK A01 T01580009  RH  036%=      5-min Rain = 0
KPD3 181553Z 26024G29KT 16/01 A2972 RMK A01 T01580009  RH  036%=      5-min Rain = 0
KPD3 181554Z 26027KT 16/01 A2972 RMK A01 T01590010  RH  036%=      5-min Rain = 0
KPD3 181555Z 26025KT 16/01 A2972 RMK A01 T01600010  RH  036%=      5-min Rain = 0
KPD3 181556Z 26028KT 16/01 A2971 RMK A01 T01600010  RH  036%=      5-min Rain = 0
KPD3 181557Z 26026KT 16/01 A2972 RMK A01 T01600010  RH  036%=      5-min Rain = 0
KPD3 181558Z 26026G33KT 16/01 A2972 RMK A01 T01600011  RH  036%=      5-min Rain = 0
KPD3 181559Z 25032G40KT 16/01 A2972 RMK A01 T01610012  RH  036%=      5-min Rain = 0
KPD3 181600Z 25024G31KT 16/01 A2972 RMK A01 T01600011  RH  036%=      5-min Rain = 0
KPD3 181601Z 25027KT 16/01 A2972 RMK A01 T01590011  RH  037%=      5-min Rain = 0
KPD3 181602Z 26023G28KT 16/01 A2972 RMK A01 T01600011  RH  036%=      5-min Rain = 0
KPD3 181603Z 26024KT 16/01 A2972 RMK A01 T01600011  RH  036%=      5-min Rain = 0
KPD3 181604Z 26023KT 16/01 A2972 RMK A01 T01590010  RH  036%=      5-min Rain = 0
KPD3 181605Z 26022KT 16/01 A2972 RMK A01 T01590010  RH  036%=      5-min Rain = 0
KPD3 181606Z 26023G34KT 16/01 A2972 RMK A01 T01580011  RH  037%=      5-min Rain = 0
KPD3 181607Z 26030G35KT 16/01 A2972 RMK A01 T01580011  RH  037%=      5-min Rain = 0
KPD3 181608Z 26025KT 16/01 A2972 RMK A01 T01580011  RH  037%=      5-min Rain = 0
KPD3 181609Z 26021G26KT 16/01 A2972 RMK A01 T01580011  RH  037%=      5-min Rain = 0
KPD3 181610Z 26024G30KT 16/01 A2972 RMK A01 T01580012  RH  037%=      5-min Rain = 0
KPD3 181611Z 25023KT 16/01 A2972 RMK A01 T01580012  RH  037%=      5-min Rain = 0
KPD3 181612Z 25024G31KT 16/01 A2972 RMK A01 T01580012  RH  037%=      5-min Rain = 0
KPD3 181613Z 26020KT 16/01 A2972 RMK A01 T01580012  RH  037%=      5-min Rain = 0
KPD3 181614Z 26023KT 16/01 A2971 RMK A01 T01580013  RH  037%=      5-min Rain = 0
KPD3 181615Z 26025G31KT 16/01 A2971 RMK A01 T01580013  RH  037%=      5-min Rain = 0
KPD3 181616Z 26025KT 16/01 A2972 RMK A01 T01590013  RH  037%=      5-min Rain = 0
KPD3 181617Z 25022G27KT 16/01 A2972 RMK A01 T01590013  RH  037%=      5-min Rain = 0
KPD3 181618Z 26024G29KT 16/01 A2972 RMK A01 T01590012  RH  037%=      5-min Rain = 0
KPD3 181619Z 26022G27KT 16/01 A2972 RMK A01 T01590012  RH  037%=      5-min Rain = 0
KPD3 181620Z 25023G28KT 16/01 A2971 RMK A01 T01590012  RH  037%=      5-min Rain = 0
KPD3 181621Z 25020KT 16/01 A2972 RMK A01 T01600012  RH  037%=      5-min Rain = 0
KPD3 181622Z 26021KT 16/01 A2971 RMK A01 T01590011  RH  037%=      5-min Rain = 0
KPD3 181623Z 26023G29KT 16/01 A2971 RMK A01 T01600011  RH  037%=      5-min Rain = 0
KPD3 181624Z 26023KT 16/01 A2971 RMK A01 T01600011  RH  037%=      5-min Rain = 0
KPD3 181625Z 26020G25KT 16/01 A2972 RMK A01 T01600011  RH  036%=      5-min Rain = 0
KPD3 181626Z 26023G29KT 16/01 A2971 RMK A01 T01600012  RH  037%=      5-min Rain = 0
KPD3 181627Z 26025KT 16/01 A2971 RMK A01 T01600011  RH  036%=      5-min Rain = 0
KPD3 181628Z 26024KT 16/01 A2971 RMK A01 T01600011  RH  036%=      5-min Rain = 0
KPD3 181629Z 25025KT 16/01 A2971 RMK A01 T01610011  RH  036%=      5-min Rain = 0
KPD3 181630Z 26023KT 16/01 A2971 RMK A01 T01610011  RH  036%=      5-min Rain = 0
KPD3 181631Z 26021G26KT 16/01 A2971 RMK A01 T01610011  RH  036%=      5-min Rain = 0
KPD3 181632Z 26019KT 16/01 A2971 RMK A01 T01620011  RH  036%=      5-min Rain = 0
KPD3 181633Z 26020G26KT 16/01 A2971 RMK A01 T01610011  RH  036%=      5-min Rain = 0
KPD3 181634Z 26024KT 16/01 A2971 RMK A01 T01610010  RH  036%=      5-min Rain = 0
KPD3 181635Z 26023KT 16/01 A2971 RMK A01 T01610010  RH  036%=      5-min Rain = 0
KPD3 181636Z 26023G29KT 16/01 A297 RMK A01 T01610010  RH  036%=      5-min Rain = 0
KPD3 181637Z 26023G29KT 16/01 A297 RMK A01 T01610010  RH  036%=      5-min Rain = 0
KPD3 181638Z 26024KT 16/01 A297 RMK A01 T01610011  RH  036%=      5-min Rain = 0
KPD3 181639Z 26023G28KT 16/01 A297 RMK A01 T01610011  RH  036%=      5-min Rain = 0
KPD3 181640Z 26021G27KT 16/01 A297 RMK A01 T01620011  RH  036%=      5-min Rain = 0
KPD3 181641Z 26027KT 16/01 A297 RMK A01 T01620011  RH  036%=      5-min Rain = 0
KPD3 181642Z 26025KT 16/01 A297 RMK A01 T01620011  RH  036%=      5-min Rain = 0
KPD3 181643Z 26021KT 16/01 A297 RMK A01 T01620011  RH  036%=      5-min Rain = 0
KPD3 181644Z 26020KT 16/01 A297 RMK A01 T01620012  RH  036%=      5-min Rain = 0
KPD3 181645Z 25019KT 16/01 A297 RMK A01 T01620012  RH  036%=      5-min Rain = 0
KPD3 181646Z 25022KT 16/01 A2969 RMK A01 T01620012  RH  036%=      5-min Rain = 0
KPD3 181647Z 25019G24KT 16/01 A2969 RMK A01 T01630011  RH  036%=      5-min Rain = 0
KPD3 181648Z 26017KT 16/01 A2969 RMK A01 T01630012  RH  036%=      5-min Rain = 0
KPD3 181649Z 25021G27KT 16/01 A2969 RMK A01 T01630012  RH  036%=      5-min Rain = 0
KPD3 181650Z 25021G27KT 16/01 A2969 RMK A01 T01630012  RH  036%=      5-min Rain = 0
KPD3 181651Z 25025KT 16/01 A2969 RMK A01 T01640013  RH  036%=      5-min Rain = 0
KPD3 181652Z 25026KT 17/01 A2969 RMK A01 T01650013  RH  036%=      5-min Rain = 0
KPD3 181653Z 26024KT 17/01 A2969 RMK A01 T01660014  RH  036%=      5-min Rain = 0
KPD3 181654Z 25024KT 17/02 A2969 RMK A01 T01670015  RH  036%=      5-min Rain = 0
KPD3 181655Z 25025KT 17/02 A2968 RMK A01 T01690017  RH  036%=      5-min Rain = 0
KPD3 181656Z 25023KT 17/02 A2969 RMK A01 T01700017  RH  036%=      5-min Rain = 0
KPD3 181657Z 26026G34KT 17/02 A2969 RMK A01 T01720018  RH  036%=      5-min Rain = 0
KPD3 181658Z 26029KT 17/02 A2968 RMK A01 T01730018  RH  035%=      5-min Rain = 0
KPD3 181659Z 26028G33KT 17/02 A2969 RMK A01 T01730018  RH  035%=      5-min Rain = 0
KPD3 181700Z 25025KT 17/02 A2969 RMK A01 T01740018  RH  035%=      5-min Rain = 0
KPD3 181701Z 26025G30KT 18/02 A2969 RMK A01 T01760019  RH  035%=      5-min Rain = 0
KPD3 181702Z 26023KT 18/02 A2969 RMK A01 T01770019  RH  035%=      5-min Rain = 0
KPD3 181703Z 25025G31KT 18/02 A2969 RMK A01 T01780021  RH  035%=      5-min Rain = 0
KPD3 181704Z 25024G30KT 18/02 A2969 RMK A01 T01800021  RH  034%=      5-min Rain = 0
KPD3 181705Z 25024G29KT 18/02 A2968 RMK A01 T01800021  RH  034%=      5-min Rain = 0
KPD3 181706Z 25025KT 18/02 A2968 RMK A01 T01800021  RH  034%=      5-min Rain = 0
KPD3 181707Z 25027KT 18/02 A2969 RMK A01 T01800020  RH  034%=      5-min Rain = 0
KPD3 181708Z 26024KT 18/02 A2968 RMK A01 T01790019  RH  034%=      5-min Rain = 0
KPD3 181709Z 25024G29KT 18/02 A2968 RMK A01 T01780020  RH  035%=      5-min Rain = 0
KPD3 181710Z 26022G27KT 18/02 A2968 RMK A01 T01780020  RH  035%=      5-min Rain = 0
KPD3 181711Z 25025G31KT 18/02 A2968 RMK A01 T01780020  RH  035%=      5-min Rain = 0
KPD3 181712Z 25025G31KT 18/02 A2968 RMK A01 T01780019  RH  035%=      5-min Rain = 0
KPD3 181713Z 26025KT 18/02 A2968 RMK A01 T01790021  RH  035%=      5-min Rain = 0
KPD3 181714Z 25024G31KT 18/02 A2968 RMK A01 T01810022  RH  035%=      5-min Rain = 0
KPD3 181715Z 25025G30KT 18/02 A2968 RMK A01 T01820022  RH  034%=      5-min Rain = 0
KPD3 181716Z 25024KT 18/02 A2968 RMK A01 T01810022  RH  034%=      5-min Rain = 0
KPD3 181717Z 26025G31KT 18/02 A2968 RMK A01 T01800022  RH  035%=      5-min Rain = 0
KPD3 181718Z 25024G30KT 18/02 A2968 RMK A01 T01800022  RH  035%=      5-min Rain = 0
KPD3 181719Z 26023KT 18/02 A2968 RMK A01 T01800023  RH  035%=      5-min Rain = 0
KPD3 181720Z 25024G30KT 18/02 A2968 RMK A01 T01820024  RH  035%=      5-min Rain = 0
KPD3 181721Z 25025G31KT 19/03 A2968 RMK A01 T01860027  RH  035%=      5-min Rain = 0
KPD3 181722Z 25031G38KT 19/03 A2967 RMK A01 T01870025  RH  034%=      5-min Rain = 0
KPD3 181723Z 26025KT 19/03 A2968 RMK A01 T01860025  RH  034%=      5-min Rain = 0
KPD3 181724Z 25024G30KT 19/03 A2968 RMK A01 T01870026  RH  034%=      5-min Rain = 0
KPD3 181725Z 26025KT 19/02 A2968 RMK A01 T01870024  RH  034%=      5-min Rain = 0
KPD3 181726Z 25028KT 19/02 A2967 RMK A01 T01860024  RH  034%=      5-min Rain = 0
KPD3 181727Z 26027KT 19/02 A2967 RMK A01 T01860024  RH  034%=      5-min Rain = 0
KPD3 181728Z 26025KT 19/03 A2967 RMK A01 T01870025  RH  034%=      5-min Rain = 0
KPD3 181729Z 26025G30KT 19/03 A2967 RMK A01 T01880026  RH  034%=      5-min Rain = 0
KPD3 181730Z 25027G35KT 19/03 A2967 RMK A01 T01890026  RH  034%=      5-min Rain = 0
KPD3 181731Z 25030KT 19/02 A2967 RMK A01 T01880024  RH  033%=      5-min Rain = 0
KPD3 181732Z 25028KT 19/02 A2967 RMK A01 T01850023  RH  034%=      5-min Rain = 0
KPD3 181733Z 26028KT 18/02 A2967 RMK A01 T01830023  RH  034%=      5-min Rain = 0
KPD3 181734Z 25028KT 18/02 A2967 RMK A01 T01800022  RH  035%=      5-min Rain = 0
KPD3 181735Z 26024KT 18/02 A2967 RMK A01 T01790022  RH  035%=      5-min Rain = 0
KPD3 181736Z 26022KT 18/02 A2967 RMK A01 T01790023  RH  035%=      5-min Rain = 0
KPD3 181737Z 26023KT 18/02 A2967 RMK A01 T01810024  RH  035%=      5-min Rain = 0
KPD3 181738Z 26022G27KT 19/03 A2967 RMK A01 T01850026  RH  035%=      5-min Rain = 0
KPD3 181739Z 25025G31KT 19/03 A2966 RMK A01 T01870025  RH  034%=      5-min Rain = 0
KPD3 181740Z 26024G32KT 19/02 A2966 RMK A01 T01880024  RH  033%=      5-min Rain = 0
KPD3 181741Z 26025G30KT 19/02 A2966 RMK A01 T01880024  RH  034%=      5-min Rain = 0
KPD3 181742Z 27024KT 19/02 A2966 RMK A01 T01880024  RH  033%=      5-min Rain = 0
KPD3 181743Z 26026KT 19/03 A2966 RMK A01 T01900025  RH  033%=      5-min Rain = 0
KPD3 181744Z 26024G30KT 19/03 A2966 RMK A01 T01910025  RH  033%=      5-min Rain = 0
KPD3 181745Z 26024G31KT 19/03 A2966 RMK A01 T01920025  RH  033%=      5-min Rain = 0
KPD3 181746Z 25023G29KT 19/03 A2965 RMK A01 T01930026  RH  033%=      5-min Rain = 0
KPD3 181747Z 26024G33KT 20/03 A2965 RMK A01 T01970028  RH  033%=      5-min Rain = 0
KPD3 181748Z 26027G32KT 20/03 A2965 RMK A01 T01970026  RH  032%=      5-min Rain = 0
KPD3 181749Z 26023KT 20/03 A2965 RMK A01 T01960025  RH  032%=      5-min Rain = 0
KPD3 181750Z 25025G31KT 20/03 A2965 RMK A01 T01980028  RH  032%=      5-min Rain = 0
KPD3 181751Z 25022G27KT 20/03 A2965 RMK A01 T02010029  RH  032%=      5-min Rain = 0
KPD3 181752Z 26027G33KT 20/03 A2965 RMK A01 T02030029  RH  032%=      5-min Rain = 0
KPD3 181753Z 25030G38KT 20/03 A2965 RMK A01 T02030028  RH  031%=      5-min Rain = 0
KPD3 181754Z 26036KT 20/03 A2964 RMK A01 T02020027  RH  031%=      5-min Rain = 0
KPD3 181755Z 26031G37KT 20/03 A2964 RMK A01 T02000028  RH  032%=      5-min Rain = 0
KPD3 181756Z 27029KT 20/03 A2964 RMK A01 T01990028  RH  032%=      5-min Rain = 0
KPD3 181757Z 25028KT 20/03 A2964 RMK A01 T02000029  RH  032%=      5-min Rain = 0
KPD3 181758Z 26027G32KT 20/03 A2964 RMK A01 T02020030  RH  032%=      5-min Rain = 0
KPD3 181759Z 26026G31KT 20/03 A2964 RMK A01 T02040030  RH  032%=      5-min Rain = 0
KPD3 181800Z 25022G28KT 21/03 A2964 RMK A01 T02050030  RH  032%=      5-min Rain = 0
KPD3 181801Z 25026G34KT 21/03 A2964 RMK A01 T02070031  RH  031%=      5-min Rain = 0
KPD3 181802Z 25024G29KT 21/03 A2964 RMK A01 T02070030  RH  031%=      5-min Rain = 0
KPD3 181803Z 25031G40KT 21/03 A2964 RMK A01 T02080031  RH  031%=      5-min Rain = 0
KPD3 181804Z 26033G40KT 21/03 A2964 RMK A01 T02060029  RH  031%=      5-min Rain = 0
KPD3 181805Z 26036G43KT 20/03 A2964 RMK A01 T02040028  RH  031%=      5-min Rain = 0
KPD3 181806Z 26031KT 20/03 A2964 RMK A01 T02030028  RH  031%=      5-min Rain = 0
KPD3 181807Z 27029G36KT 20/03 A2964 RMK A01 T02030029  RH  032%=      5-min Rain = 0
KPD3 181808Z 27032KT 20/03 A2963 RMK A01 T02040028  RH  031%=      5-min Rain = 0
KPD3 181809Z 27030KT 20/03 A2963 RMK A01 T02040028  RH  031%=      5-min Rain = 0
KPD3 181810Z 26030G37KT 20/03 A2964 RMK A01 T02040029  RH  031%=      5-min Rain = 0
KPD3 181811Z 27029G35KT 21/03 A2963 RMK A01 T02060029  RH  031%=      5-min Rain = 0
KPD3 181812Z 26028G35KT 21/03 A2963 RMK A01 T02060028  RH  031%=      5-min Rain = 0
KPD3 181813Z 26026KT 21/03 A2963 RMK A01 T02070029  RH  031%=      5-min Rain = 0
KPD3 181814Z 26022G29KT 21/03 A2963 RMK A01 T02090029  RH  031%=      5-min Rain = 0
KPD3 181815Z 26027G32KT 21/03 A2963 RMK A01 T02100030  RH  031%=      5-min Rain = 0
KPD3 181816Z 25028KT 21/03 A2963 RMK A01 T02100029  RH  030%=      5-min Rain = 0
KPD3 181817Z 25029KT 21/03 A2963 RMK A01 T02090028  RH  030%=      5-min Rain = 0
KPD3 181818Z 25025G31KT 21/03 A2963 RMK A01 T02070028  RH  031%=      5-min Rain = 0
KPD3 181819Z 25025G32KT 21/03 A2963 RMK A01 T02070029  RH  031%=      5-min Rain = 0
KPD3 181820Z 25028G34KT 21/03 A2963 RMK A01 T02090030  RH  031%=      5-min Rain = 0
KPD3 181821Z 24030KT 21/03 A2962 RMK A01 T02090028  RH  030%=      5-min Rain = 0
KPD3 181822Z 25024G30KT 21/03 A2962 RMK A01 T02090029  RH  030%=      5-min Rain = 0
KPD3 181823Z 25023G28KT 21/03 A2962 RMK A01 T02110029  RH  030%=      5-min Rain = 0
KPD3 181824Z 25027G32KT 21/03 A2962 RMK A01 T02110028  RH  030%=      5-min Rain = 0
KPD3 181825Z 25027G33KT 21/03 A2962 RMK A01 T02110028  RH  030%=      5-min Rain = 0
KPD3 181826Z 25024KT 21/03 A2962 RMK A01 T02120028  RH  030%=      5-min Rain = 0
KPD3 181827Z 25029KT 21/03 A2962 RMK A01 T02130028  RH  030%=      5-min Rain = 0
KPD3 181828Z 25029G34KT 21/03 A2962 RMK A01 T02120027  RH  029%=      5-min Rain = 0
KPD3 181829Z 25029G34KT 21/03 A2962 RMK A01 T02110027  RH  030%=      5-min Rain = 0
KPD3 181830Z 26029KT 21/03 A2962 RMK A01 T02110026  RH  030%=      5-min Rain = 0
KPD3 181831Z 26028G33KT 21/03 A2961 RMK A01 T02110025  RH  029%=      5-min Rain = 0
KPD3 181832Z 26028G33KT 21/02 A2961 RMK A01 T02090024  RH  029%=      5-min Rain = 0
KPD3 181833Z 25029G35KT 21/03 A2961 RMK A01 T02090025  RH  030%=      5-min Rain = 0
KPD3 181834Z 26024G29KT 21/03 A2961 RMK A01 T02080025  RH  030%=      5-min Rain = 0
KPD3 181835Z 26027G32KT 21/03 A2961 RMK A01 T02100026  RH  030%=      5-min Rain = 0
KPD3 181836Z 26029G34KT 21/02 A2961 RMK A01 T02100024  RH  029%=      5-min Rain = 0
KPD3 181837Z 26027G36KT 21/02 A2961 RMK A01 T02090021  RH  029%=      5-min Rain = 0
KPD3 181838Z 25029G35KT 21/02 A296 RMK A01 T02090022  RH  029%=      5-min Rain = 0
KPD3 181839Z 25027G32KT 21/02 A296 RMK A01 T02090023  RH  029%=      5-min Rain = 0
KPD3 181840Z 25029G37KT 21/02 A296 RMK A01 T02090021  RH  029%=      5-min Rain = 0
KPD3 181841Z 25028G35KT 21/02 A296 RMK A01 T02090019  RH  028%=      5-min Rain = 0
KPD3 181842Z 26031G37KT 21/02 A296 RMK A01 T02090019  RH  028%=      5-min Rain = 0
KPD3 181843Z 25031G36KT 21/02 A296 RMK A01 T02090019  RH  028%=      5-min Rain = 0
KPD3 181844Z 26030G36KT 21/02 A296 RMK A01 T02080020  RH  029%=      5-min Rain = 0
KPD3 181845Z 26026KT 21/02 A296 RMK A01 T02080019  RH  029%=      5-min Rain = 0
KPD3 181846Z 25025G32KT 21/02 A296 RMK A01 T02080019  RH  028%=      5-min Rain = 0
KPD3 181847Z 26024KT 21/02 A296 RMK A01 T02110021  RH  028%=      5-min Rain = 0
KPD3 181848Z 26026G32KT 21/02 A296 RMK A01 T02130021  RH  028%=      5-min Rain = 0
KPD3 181849Z 27027KT 21/02 A296 RMK A01 T02140021  RH  028%=      5-min Rain = 0
KPD3 181850Z 26027G33KT 21/02 A296 RMK A01 T02140019  RH  027%=      5-min Rain = 0
KPD3 181851Z 25031KT 21/02 A296 RMK A01 T02130017  RH  027%=      5-min Rain = 0
KPD3 181852Z 26030KT 21/02 A296 RMK A01 T02110017  RH  028%=      5-min Rain = 0
KPD3 181853Z 26026KT 21/02 A2959 RMK A01 T02110018  RH  028%=      5-min Rain = 0
KPD3 181854Z 25030KT 21/02 A2959 RMK A01 T02120018  RH  028%=      5-min Rain = 0
KPD3 181855Z 25030G35KT 21/02 A2959 RMK A01 T02120018  RH  028%=      5-min Rain = 0
KPD3 181856Z 25026G32KT 21/02 A2959 RMK A01 T02120016  RH  027%=      5-min Rain = 0
KPD3 181857Z 25029G34KT 21/02 A2959 RMK A01 T02120016  RH  027%=      5-min Rain = 0
KPD3 181858Z 25030G36KT 21/02 A2959 RMK A01 T02120016  RH  027%=      5-min Rain = 0
KPD3 181859Z 26030G35KT 21/02 A2959 RMK A01 T02120017  RH  027%=      5-min Rain = 0
KPD3 181900Z 25030G35KT 21/02 A2959 RMK A01 T02120016  RH  027%=      5-min Rain = 0
KPD3 181901Z 26031KT 21/02 A2959 RMK A01 T02120015  RH  027%=      5-min Rain = 0
KPD3 181902Z 25027G33KT 21/01 A2959 RMK A01 T02110014  RH  027%=      5-min Rain = 0
KPD3 181903Z 26024G31KT 21/02 A2959 RMK A01 T02110015  RH  027%=      5-min Rain = 0
KPD3 181904Z 26027G32KT 21/01 A2959 RMK A01 T02130013  RH  027%=      5-min Rain = 0
KPD3 181905Z 25023G30KT 21/01 A2959 RMK A01 T02130014  RH  027%=      5-min Rain = 0
KPD3 181906Z 25028G33KT 21/01 A2958 RMK A01 T02130014  RH  027%=      5-min Rain = 0
KPD3 181907Z 26031G37KT 22/01 A2958 RMK A01 T02150014  RH  026%=      5-min Rain = 0
KPD3 181908Z 26028KT 21/01 A2958 RMK A01 T02130013  RH  026%=      5-min Rain = 0
KPD3 181909Z 26024G30KT 21/01 A2958 RMK A01 T02130013  RH  027%=      5-min Rain = 0
KPD3 181910Z 26025G31KT 22/01 A2958 RMK A01 T02150014  RH  026%=      5-min Rain = 0
KPD3 181911Z 25027G32KT 22/01 A2958 RMK A01 T02150013  RH  026%=      5-min Rain = 0
KPD3 181912Z 25027G32KT 21/01 A2958 RMK A01 T02130013  RH  026%=      5-min Rain = 0
KPD3 181913Z 24024G29KT 21/01 A2958 RMK A01 T02130013  RH  027%=      5-min Rain = 0
KPD3 181914Z 25031G36KT 21/01 A2958 RMK A01 T02120013  RH  027%=      5-min Rain = 0
KPD3 181915Z 26028G34KT 21/01 A2958 RMK A01 T02120011  RH  026%=      5-min Rain = 0
KPD3 181916Z 25027KT 21/01 A2958 RMK A01 T02110012  RH  027%=      5-min Rain = 0
KPD3 181917Z 25027KT 21/01 A2958 RMK A01 T02110013  RH  027%=      5-min Rain = 0
KPD3 181918Z 25022G27KT 21/01 A2958 RMK A01 T02120014  RH  027%=      5-min Rain = 0
KPD3 181919Z 25025G30KT 22/02 A2958 RMK A01 T02150015  RH  027%=      5-min Rain = 0
KPD3 181920Z 25027KT 22/01 A2958 RMK A01 T02160014  RH  026%=      5-min Rain = 0
KPD3 181921Z 26026G31KT 22/01 A2958 RMK A01 T02160014  RH  026%=      5-min Rain = 0
KPD3 181922Z 26021G27KT 22/02 A2958 RMK A01 T02150015  RH  026%=      5-min Rain = 0
KPD3 181923Z 25021G26KT 22/02 A2958 RMK A01 T02190015  RH  026%=      5-min Rain = 0
KPD3 181924Z 25023KT 22/01 A2957 RMK A01 T02200012  RH  025%=      5-min Rain = 0
KPD3 181925Z 25027KT 22/01 A2957 RMK A01 T02210012  RH  025%=      5-min Rain = 0
KPD3 181926Z 27024G30KT 22/01 A2957 RMK A01 T02210012  RH  025%=      5-min Rain = 0
KPD3 181927Z 27021G26KT 22/01 A2957 RMK A01 T02210011  RH  025%=      5-min Rain = 0
KPD3 181928Z 26020KT 22/01 A2957 RMK A01 T02200011  RH  025%=      5-min Rain = 0
KPD3 181929Z 26025G32KT 22/01 A2957 RMK A01 T02220011  RH  025%=      5-min Rain = 0
KPD3 181930Z 27027KT 22/01 A2957 RMK A01 T02220010  RH  024%=      5-min Rain = 0
KPD3 181931Z 27023KT 22/01 A2957 RMK A01 T02210009  RH  025%=      5-min Rain = 0
KPD3 181932Z 26020G25KT 22/01 A2957 RMK A01 T02230010  RH  024%=      5-min Rain = 0
KPD3 181933Z 26022G29KT 22/01 A2957 RMK A01 T02230010  RH  024%=      5-min Rain = 0
KPD3 181934Z 26023G29KT 22/01 A2957 RMK A01 T02200006  RH  024%=      5-min Rain = 0
KPD3 181935Z 26023G28KT 22/00 A2957 RMK A01 T02160003  RH  024%=      5-min Rain = 0
KPD3 181936Z 27018KT 21/00 A2957 RMK A01 T02140004  RH  025%=      5-min Rain = 0
KPD3 181937Z 26023G29KT 22/01 A2957 RMK A01 T02160005  RH  025%=      5-min Rain = 0
KPD3 181938Z 26021G27KT 22/00 A2957 RMK A01 T02160003  RH  024%=      5-min Rain = 0
KPD3 181939Z 26024KT 21/00 A2957 RMK A01 T02140001  RH  024%=      5-min Rain = 0
KPD3 181940Z 27024KT 21/00 A2956 RMK A01 T02140000  RH  024%=      5-min Rain = 0
KPD3 181941Z 25030G37KT 21/00 A2956 RMK A01 T02140001  RH  024%=      5-min Rain = 0
KPD3 181942Z 26033KT 21/00 A2956 RMK A01 T021200-0  RH  024%=      5-min Rain = 0
KPD3 181943Z 26028KT 21/M00 A2956 RMK A01 T02101001  RH  024%=      5-min Rain = 0
KPD3 181944Z 27028KT 21/00 A2956 RMK A01 T02120001  RH  025%=      5-min Rain = 0
KPD3 181945Z 27025G31KT 21/00 A2956 RMK A01 T02140002  RH  024%=      5-min Rain = 0
KPD3 181946Z 27024KT 22/00 A2956 RMK A01 T02160003  RH  024%=      5-min Rain = 0
KPD3 181947Z 27024G30KT 22/00 A2956 RMK A01 T02160001  RH  024%=      5-min Rain = 0
KPD3 181948Z 27024G29KT 22/00 A2956 RMK A01 T02150002  RH  024%=      5-min Rain = 0
KPD3 181949Z 27027G39KT 22/00 A2956 RMK A01 T02150002  RH  024%=      5-min Rain = 0
KPD3 181950Z 26029G34KT 22/00 A2956 RMK A01 T02160002  RH  024%=      5-min Rain = 0
KPD3 181951Z 26029G34KT 22/00 A2956 RMK A01 T021600-0  RH  024%=      5-min Rain = 0
KPD3 181952Z 25028G37KT 21/M00 A2956 RMK A01 T02141001  RH  024%=      5-min Rain = 0
KPD3 181953Z 26028KT 21/00 A2956 RMK A01 T02140000  RH  024%=      5-min Rain = 0
KPD3 181954Z 26030G39KT 22/00 A2956 RMK A01 T021500-0  RH  024%=      5-min Rain = 0
KPD3 181955Z 27029KT 22/00 A2956 RMK A01 T021500-0  RH  024%=      5-min Rain = 0
KPD3 181956Z 28025G31KT 22/M00 A2956 RMK A01 T02151001  RH  024%=      5-min Rain = 0
KPD3 181957Z 27028G33KT 22/M00 A2956 RMK A01 T02151002  RH  024%=      5-min Rain = 0
KPD3 181958Z 26025G30KT 21/M01 A2956 RMK A01 T02121006  RH  023%=      5-min Rain = 0
KPD3 181959Z 27024G30KT 21/M01 A2956 RMK A01 T02101009  RH  023%=      5-min Rain = 0
KPD3 182000Z 27024KT 21/M01 A2956 RMK A01 T02091007  RH  024%=      5-min Rain = 0
KPD3 182001Z 27024G29KT 21/M01 A2956 RMK A01 T02071005  RH  024%=      5-min Rain = 0
KPD3 182002Z 26025KT 21/M01 A2956 RMK A01 T02061005  RH  024%=      5-min Rain = 0
KPD3 182003Z 27022G28KT 21/M00 A2956 RMK A01 T02061004  RH  025%=      5-min Rain = 0
KPD3 182004Z 27028G34KT 21/M00 A2956 RMK A01 T02071004  RH  024%=      5-min Rain = 0
KPD3 182005Z 27026KT 21/M00 A2956 RMK A01 T02061003  RH  025%=      5-min Rain = 0
KPD3 182006Z 27023KT 21/M00 A2956 RMK A01 T02051003  RH  025%=      5-min Rain = 0
KPD3 182007Z 27024KT 21/M00 A2956 RMK A01 T02091001  RH  025%=      5-min Rain = 0
KPD3 182008Z 27025G31KT 21/M01 A2956 RMK A01 T02111005  RH  024%=      5-min Rain = 0
KPD3 182009Z 27024KT 21/M00 A2956 RMK A01 T02111004  RH  024%=      5-min Rain = 0
KPD3 182010Z 27027KT 21/M01 A2956 RMK A01 T02111005  RH  024%=      5-min Rain = 0
KPD3 182011Z 27027G33KT 21/M01 A2956 RMK A01 T02121007  RH  023%=      5-min Rain = 0
KPD3 182012Z 27026KT 21/M01 A2956 RMK A01 T02131008  RH  023%=      5-min Rain = 0
KPD3 182013Z 27027KT 21/M01 A2956 RMK A01 T02141010  RH  022%=      5-min Rain = 0
KPD3 182014Z 27026KT 22/M01 A2956 RMK A01 T02161009  RH  022%=      5-min Rain = 0
KPD3 182015Z 28022KT 22/M01 A2956 RMK A01 T02181007  RH  022%=      5-min Rain = 0
KPD3 182016Z 27020KT 22/M01 A2956 RMK A01 T02181007  RH  022%=      5-min Rain = 0
KPD3 182017Z 26024KT 22/M01 A2956 RMK A01 T02181009  RH  022%=      5-min Rain = 0
KPD3 182018Z 26024KT 22/M01 A2956 RMK A01 T02161012  RH  022%=      5-min Rain = 0
KPD3 182019Z 26026KT 21/M01 A2956 RMK A01 T02131012  RH  022%=      5-min Rain = 0
KPD3 182020Z 27023KT 21/M01 A2956 RMK A01 T02101013  RH  022%=      5-min Rain = 0
KPD3 182021Z 26023G29KT 21/M01 A2955 RMK A01 T02081014  RH  023%=      5-min Rain = 0
KPD3 182022Z 27025KT 21/M01 A2956 RMK A01 T02071013  RH  023%=      5-min Rain = 0
KPD3 182023Z 29023KT 21/M01 A2956 RMK A01 T02071014  RH  023%=      5-min Rain = 0
KPD3 182024Z 28025G31KT 21/M02 A2955 RMK A01 T02071015  RH  022%=      5-min Rain = 0
KPD3 182025Z 28026G31KT 21/M02 A2955 RMK A01 T02061018  RH  022%=      5-min Rain = 0
KPD3 182026Z 27024KT 21/M02 A2955 RMK A01 T02051019  RH  022%=      5-min Rain = 0
KPD3 182027Z 27020G25KT 21/M02 A2955 RMK A01 T02051018  RH  022%=      5-min Rain = 0
KPD3 182028Z 27019KT 21/M02 A2955 RMK A01 T02051017  RH  022%=      5-min Rain = 0
KPD3 182029Z 27018KT 21/M02 A2955 RMK A01 T02061017  RH  022%=      5-min Rain = 0
KPD3 182030Z 27017G24KT 21/M02 A2955 RMK A01 T02061017  RH  022%=      5-min Rain = 0
KPD3 182031Z 27025G30KT 21/M02 A2955 RMK A01 T02061019  RH  022%=      5-min Rain = 0
KPD3 182032Z 26024KT 20/M02 A2955 RMK A01 T02041022  RH  022%=      5-min Rain = 0
KPD3 182033Z 26023G28KT 20/M02 A2955 RMK A01 T02031023  RH  022%=      5-min Rain = 0
KPD3 182034Z 26026G33KT 20/M03 A2955 RMK A01 T02031025  RH  021%=      5-min Rain = 0
KPD3 182035Z 27022G28KT 20/M03 A2955 RMK A01 T02031026  RH  021%=      5-min Rain = 0
KPD3 182036Z 26023KT 20/M03 A2955 RMK A01 T02031028  RH  021%=      5-min Rain = 0
KPD3 182037Z 26024KT 20/M03 A2955 RMK A01 T02041029  RH  021%=      5-min Rain = 0
KPD3 182038Z 26024KT 21/M03 A2956 RMK A01 T02061030  RH  020%=      5-min Rain = 0
KPD3 182039Z 27027KT 21/M03 A2955 RMK A01 T02081032  RH  020%=      5-min Rain = 0
KPD3 182040Z 27026KT 21/M03 A2956 RMK A01 T02081033  RH  020%=      5-min Rain = 0
KPD3 182041Z 27024KT 21/M03 A2956 RMK A01 T02081033  RH  020%=      5-min Rain = 0
KPD3 182042Z 27024G29KT 21/M04 A2956 RMK A01 T02061035  RH  019%=      5-min Rain = 0
KPD3 182043Z 27025KT 21/M04 A2956 RMK A01 T02051035  RH  020%=      5-min Rain = 0
KPD3 182044Z 27025G30KT 21/M04 A2956 RMK A01 T02051035  RH  020%=      5-min Rain = 0
KPD3 182045Z 27025G30KT 20/M04 A2956 RMK A01 T02031037  RH  020%=      5-min Rain = 0
KPD3 182046Z 29024G30KT 20/M04 A2956 RMK A01 T02021039  RH  019%=      5-min Rain = 0
KPD3 182047Z 29023G28KT 20/M04 A2956 RMK A01 T02011041  RH  019%=      5-min Rain = 0
KPD3 182048Z 29020KT 20/M04 A2956 RMK A01 T02001043  RH  019%=      5-min Rain = 0
KPD3 182049Z 29020G25KT 20/M04 A2956 RMK A01 T02001043  RH  019%=      5-min Rain = 0
KPD3 182050Z 28017KT 20/M04 A2956 RMK A01 T01991043  RH  019%=      5-min Rain = 0
KPD3 182051Z 29019KT 20/M04 A2956 RMK A01 T01991043  RH  019%=      5-min Rain = 0
KPD3 182052Z 29017KT 20/M04 A2956 RMK A01 T01991041  RH  019%=      5-min Rain = 0
KPD3 182053Z 29019G25KT 20/M04 A2956 RMK A01 T01991040  RH  020%=      5-min Rain = 0
KPD3 182054Z 29023KT 20/M04 A2956 RMK A01 T01991040  RH  020%=      5-min Rain = 0
KPD3 182055Z 29020KT 20/M04 A2956 RMK A01 T01991040  RH  020%=      5-min Rain = 0
KPD3 182056Z 29020KT 20/M04 A2956 RMK A01 T01991039  RH  020%=      5-min Rain = 0
KPD3 182057Z 28016KT 20/M04 A2956 RMK A01 T01991039  RH  020%=      5-min Rain = 0
KPD3 182058Z 28014KT 20/M04 A2957 RMK A01 T02001038  RH  020%=      5-min Rain = 0
KPD3 182059Z 29015KT 20/M04 A2957 RMK A01 T02011036  RH  020%=      5-min Rain = 0
KPD3 182100Z 28015KT 20/M04 A2957 RMK A01 T02021037  RH  020%=      5-min Rain = 0
KPD3 182101Z 28014KT 20/M04 A2957 RMK A01 T02021037  RH  020%=      5-min Rain = 0
KPD3 182102Z 28012KT 20/M04 A2956 RMK A01 T02031036  RH  020%=      5-min Rain = 0
KPD3 182103Z 27012G17KT 20/M04 A2956 RMK A01 T02031035  RH  020%=      5-min Rain = 0
KPD3 182104Z 28014KT 20/M04 A2957 RMK A01 T02031037  RH  020%=      5-min Rain = 0
KPD3 182105Z 27017KT 20/M04 A2956 RMK A01 T02031037  RH  020%=      5-min Rain = 0
KPD3 182106Z 28017KT 20/M04 A2957 RMK A01 T02031037  RH  019%=      5-min Rain = 0
KPD3 182107Z 28020KT 20/M04 A2956 RMK A01 T02031040  RH  019%=      5-min Rain = 0
KPD3 182108Z 28021G26KT 20/M04 A2956 RMK A01 T02031042  RH  019%=      5-min Rain = 0
KPD3 182109Z 28020G25KT 20/M04 A2957 RMK A01 T02031044  RH  019%=      5-min Rain = 0
KPD3 182110Z 28018KT 20/M05 A2956 RMK A01 T02021047  RH  018%=      5-min Rain = 0
KPD3 182111Z 28019KT 20/M05 A2956 RMK A01 T02021047  RH  018%=      5-min Rain = 0
KPD3 182112Z 28021KT 20/M05 A2956 RMK A01 T02021048  RH  018%=      5-min Rain = 0
KPD3 182113Z 29020KT 20/M05 A2956 RMK A01 T02021048  RH  018%=      5-min Rain = 0
KPD3 182114Z 29019G24KT 20/M05 A2956 RMK A01 T02021047  RH  018%=      5-min Rain = 0
KPD3 182115Z 29016KT 20/M05 A2956 RMK A01 T02021047  RH  018%=      5-min Rain = 0
KPD3 182116Z 29018KT 20/M05 A2956 RMK A01 T02021047  RH  018%=      5-min Rain = 0
KPD3 182117Z 29018KT 20/M05 A2956 RMK A01 T02021048  RH  018%=      5-min Rain = 0
KPD3 182118Z 30018KT 20/M05 A2956 RMK A01 T02021048  RH  018%=      5-min Rain = 0
KPD3 182119Z 29019KT 20/M05 A2956 RMK A01 T02021048  RH  018%=      5-min Rain = 0
KPD3 182120Z 28014G19KT 20/M05 A2956 RMK A01 T02021047  RH  018%=      5-min Rain = 0
KPD3 182121Z 27020KT 20/M05 A2956 RMK A01 T02021048  RH  018%=      5-min Rain = 0
KPD3 182122Z 28022KT 20/M05 A2956 RMK A01 T02021050  RH  018%=      5-min Rain = 0
KPD3 182123Z 29020KT 20/M05 A2956 RMK A01 T02021049  RH  018%=      5-min Rain = 0
KPD3 182124Z 28020KT 20/M05 A2956 RMK A01 T02021049  RH  018%=      5-min Rain = 0
KPD3 182125Z 28019KT 20/M05 A2956 RMK A01 T02011048  RH  018%=      5-min Rain = 0
KPD3 182126Z 28019KT 20/M05 A2956 RMK A01 T02011048  RH  018%=      5-min Rain = 0
KPD3 182127Z 28015G21KT 20/M05 A2956 RMK A01 T02011048  RH  018%=      5-min Rain = 0
KPD3 182128Z 29017KT 20/M05 A2956 RMK A01 T02001048  RH  018%=      5-min Rain = 0
KPD3 182129Z 28019KT 20/M05 A2956 RMK A01 T02001048  RH  018%=      5-min Rain = 0
KPD3 182130Z 28020KT 20/M05 A2956 RMK A01 T02001048  RH  018%=      5-min Rain = 0
KPD3 182131Z 27017KT 20/M05 A2956 RMK A01 T02001048  RH  018%=      5-min Rain = 0
KPD3 182132Z 27018KT 20/M05 A2956 RMK A01 T02001048  RH  018%=      5-min Rain = 0
KPD3 182133Z 27017KT 20/M05 A2956 RMK A01 T02001048  RH  018%=      5-min Rain = 0
KPD3 182134Z 28017KT 20/M05 A2956 RMK A01 T01991047  RH  018%=      5-min Rain = 0
KPD3 182135Z 28017KT 20/M05 A2956 RMK A01 T02001048  RH  018%=      5-min Rain = 0
KPD3 182136Z 28016KT 20/M05 A2956 RMK A01 T01991048  RH  018%=      5-min Rain = 0
KPD3 182137Z 28019KT 20/M05 A2956 RMK A01 T01991049  RH  018%=      5-min Rain = 0
KPD3 182138Z 28019G24KT 20/M05 A2956 RMK A01 T01991050  RH  018%=      5-min Rain = 0
KPD3 182139Z 28018KT 20/M05 A2957 RMK A01 T01991049  RH  018%=      5-min Rain = 0
KPD3 182140Z 29021G27KT 20/M05 A2957 RMK A01 T01991049  RH  018%=      5-min Rain = 0
KPD3 182141Z 28018KT 20/M05 A2957 RMK A01 T01981048  RH  018%=      5-min Rain = 0
KPD3 182142Z 28020KT 20/M05 A2957 RMK A01 T01981048  RH  019%=      5-min Rain = 0
KPD3 182143Z 28020KT 20/M05 A2957 RMK A01 T01981047  RH  019%=      5-min Rain = 0
KPD3 182144Z 28021KT 20/M05 A2957 RMK A01 T01981048  RH  019%=      5-min Rain = 0
KPD3 182145Z 28020KT 20/M05 A2957 RMK A01 T01981047  RH  019%=      5-min Rain = 0
KPD3 182146Z 29019KT 20/M05 A2957 RMK A01 T01981046  RH  019%=      5-min Rain = 0
KPD3 182147Z 28016KT 20/M05 A2957 RMK A01 T01981046  RH  019%=      5-min Rain = 0
KPD3 182148Z 28019KT 20/M05 A2957 RMK A01 T01981045  RH  019%=      5-min Rain = 0
KPD3 182149Z 27018KT 20/M04 A2957 RMK A01 T01981042  RH  019%=      5-min Rain = 0
KPD3 182150Z 28019KT 20/M04 A2957 RMK A01 T01981039  RH  020%=      5-min Rain = 0
KPD3 182151Z 27018KT 20/M04 A2957 RMK A01 T01981038  RH  020%=      5-min Rain = 0
KPD3 182152Z 27016KT 20/M04 A2957 RMK A01 T01981036  RH  020%=      5-min Rain = 0
KPD3 182153Z 26015KT 20/M03 A2957 RMK A01 T01971028  RH  022%=      5-min Rain = 0
KPD3 182154Z 25019KT 20/M02 A2957 RMK A01 T01961021  RH  023%=      5-min Rain = 0
KPD3 182155Z 25020KT 20/M02 A2957 RMK A01 T01961019  RH  023%=      5-min Rain = 0
KPD3 182156Z 26018KT 20/M02 A2957 RMK A01 T01951018  RH  024%=      5-min Rain = 0
KPD3 182157Z 25020KT 19/M02 A2957 RMK A01 T01941018  RH  024%=      5-min Rain = 0
KPD3 182158Z 26020KT 19/M02 A2957 RMK A01 T01941019  RH  024%=      5-min Rain = 0
KPD3 182159Z 25019G24KT 19/M02 A2957 RMK A01 T01931023  RH  023%=      5-min Rain = 0
KPD3 182200Z 26018KT 19/M02 A2957 RMK A01 T01921024  RH  023%=      5-min Rain = 0
KPD3 182201Z 25019KT 19/M02 A2957 RMK A01 T01921024  RH  023%=      5-min Rain = 0
KPD3 182202Z 25016KT 19/M02 A2957 RMK A01 T01921023  RH  023%=      5-min Rain = 0
KPD3 182203Z 25018KT 19/M02 A2957 RMK A01 T01921023  RH  023%=      5-min Rain = 0
KPD3 182204Z 25020G25KT 19/M02 A2957 RMK A01 T01921024  RH  023%=      5-min Rain = 0
KPD3 182205Z 25020G26KT 19/M03 A2957 RMK A01 T01921028  RH  022%=      5-min Rain = 0
KPD3 182206Z 26021KT 19/M03 A2957 RMK A01 T01921028  RH  022%=      5-min Rain = 0
KPD3 182207Z 26019KT 19/M03 A2958 RMK A01 T01911028  RH  023%=      5-min Rain = 0
KPD3 182208Z 25016KT 19/M03 A2958 RMK A01 T01911026  RH  023%=      5-min Rain = 0
KPD3 182209Z 25017KT 19/M03 A2958 RMK A01 T01911026  RH  023%=      5-min Rain = 0
KPD3 182210Z 26018KT 19/M03 A2958 RMK A01 T01911026  RH  023%=      5-min Rain = 0
KPD3 182211Z 25020KT 19/M03 A2958 RMK A01 T01901028  RH  023%=      5-min Rain = 0
KPD3 182212Z 25019KT 19/M03 A2958 RMK A01 T01901029  RH  023%=      5-min Rain = 0
KPD3 182213Z 26021KT 19/M03 A2958 RMK A01 T01901030  RH  022%=      5-min Rain = 0
KPD3 182214Z 26018KT 19/M03 A2958 RMK A01 T01901031  RH  022%=      5-min Rain = 0
KPD3 182215Z 26018KT 19/M03 A2958 RMK A01 T01901031  RH  022%=      5-min Rain = 0
KPD3 182216Z 26021KT 19/M03 A2958 RMK A01 T01901033  RH  022%=      5-min Rain = 0
KPD3 182217Z 27020KT 19/M03 A2958 RMK A01 T01901034  RH  022%=      5-min Rain = 0
KPD3 182218Z 27018KT 19/M04 A2958 RMK A01 T01901035  RH  022%=      5-min Rain = 0
KPD3 182219Z 27020KT 19/M04 A2958 RMK A01 T01901037  RH  021%=      5-min Rain = 0
KPD3 182220Z 26020KT 19/M04 A2958 RMK A01 T01901038  RH  021%=      5-min Rain = 0
KPD3 182221Z 27016KT 19/M04 A2958 RMK A01 T01901038  RH  021%=      5-min Rain = 0
KPD3 182222Z 27017KT 19/M04 A2958 RMK A01 T01911038  RH  021%=      5-min Rain = 0
KPD3 182223Z 27016KT 19/M04 A2958 RMK A01 T01911038  RH  021%=      5-min Rain = 0
KPD3 182224Z 27015KT 19/M04 A2958 RMK A01 T01911038  RH  021%=      5-min Rain = 0
KPD3 182225Z 28014KT 19/M04 A2958 RMK A01 T01911038  RH  021%=      5-min Rain = 0
KPD3 182226Z 28015KT 19/M04 A2958 RMK A01 T01901038  RH  021%=      5-min Rain = 0
KPD3 182227Z 28016G21KT 19/M04 A2958 RMK A01 T01901039  RH  021%=      5-min Rain = 0
KPD3 182228Z 27017KT 19/M04 A2958 RMK A01 T01901042  RH  020%=      5-min Rain = 0
KPD3 182229Z 28016G21KT 19/M04 A2958 RMK A01 T01901043  RH  020%=      5-min Rain = 0
KPD3 182230Z 27017KT 19/M04 A2958 RMK A01 T01891043  RH  020%=      5-min Rain = 0
KPD3 182231Z 27018KT 19/M04 A2958 RMK A01 T01891043  RH  020%=      5-min Rain = 0
KPD3 182232Z 27017KT 19/M04 A2958 RMK A01 T01891044  RH  020%=      5-min Rain = 0
KPD3 182233Z 27017KT 19/M04 A2958 RMK A01 T01881044  RH  020%=      5-min Rain = 0
KPD3 182234Z 27016KT 19/M04 A2958 RMK A01 T01891044  RH  020%=      5-min Rain = 0
KPD3 182235Z 28017G22KT 19/M04 A2958 RMK A01 T01881044  RH  020%=      5-min Rain = 0
KPD3 182236Z 28019KT 19/M05 A2958 RMK A01 T01881045  RH  020%=      5-min Rain = 0
KPD3 182237Z 27016KT 19/M05 A2958 RMK A01 T01881045  RH  020%=      5-min Rain = 0
KPD3 182238Z 28019KT 19/M05 A2958 RMK A01 T01881045  RH  020%=      5-min Rain = 0
KPD3 182239Z 27017KT 19/M05 A2958 RMK A01 T01881046  RH  020%=      5-min Rain = 0
KPD3 182240Z 28018KT 19/M05 A2958 RMK A01 T01881046  RH  020%=      5-min Rain = 0
KPD3 182241Z 28022KT 19/M05 A2958 RMK A01 T01881047  RH  020%=      5-min Rain = 0
KPD3 182242Z 28018G25KT 19/M05 A2958 RMK A01 T01891048  RH  020%=      5-min Rain = 0
KPD3 182243Z 28017G22KT 19/M05 A2958 RMK A01 T01891047  RH  020%=      5-min Rain = 0
KPD3 182244Z 28020KT 19/M05 A2958 RMK A01 T01881047  RH  020%=      5-min Rain = 0
KPD3 182245Z 27018KT 19/M05 A2958 RMK A01 T01881046  RH  020%=      5-min Rain = 0
KPD3 182246Z 27017KT 19/M05 A2958 RMK A01 T01881046  RH  020%=      5-min Rain = 0
KPD3 182247Z 27020KT 19/M05 A2958 RMK A01 T01871046  RH  020%=      5-min Rain = 0
KPD3 182248Z 27019KT 19/M05 A2958 RMK A01 T01881046  RH  020%=      5-min Rain = 0
KPD3 182249Z 27018KT 19/M05 A2958 RMK A01 T01871046  RH  020%=      5-min Rain = 0
KPD3 182250Z 28021KT 19/M05 A2958 RMK A01 T01871046  RH  020%=      5-min Rain = 0
KPD3 182251Z 27023KT 19/M05 A2958 RMK A01 T01871047  RH  020%=      5-min Rain = 0
KPD3 182252Z 27020G25KT 19/M05 A2958 RMK A01 T01881047  RH  020%=      5-min Rain = 0
KPD3 182253Z 27017KT 19/M05 A2958 RMK A01 T01871046  RH  020%=      5-min Rain = 0
KPD3 182254Z 27018KT 19/M05 A2958 RMK A01 T01871047  RH  020%=      5-min Rain = 0
KPD3 182255Z 27019KT 19/M05 A2958 RMK A01 T01861047  RH  020%=      5-min Rain = 0
KPD3 182256Z 27018KT 19/M05 A2958 RMK A01 T01861047  RH  020%=      5-min Rain = 0
KPD3 182257Z 27018KT 19/M05 A2959 RMK A01 T01861047  RH  020%=      5-min Rain = 0
KPD3 182258Z 27014KT 19/M05 A2959 RMK A01 T01861047  RH  020%=      5-min Rain = 0
KPD3 182259Z 28015KT 18/M05 A2959 RMK A01 T01841047  RH  020%=      5-min Rain = 0
KPD3 182300Z 27019KT 18/M05 A2959 RMK A01 T01831049  RH  020%=      5-min Rain = 0
KPD3 182301Z 27016KT 18/M05 A2959 RMK A01 T01841050  RH  020%=      5-min Rain = 0
KPD3 182302Z 27017KT 18/M05 A2959 RMK A01 T01841052  RH  020%=      5-min Rain = 0
KPD3 182303Z 27017KT 18/M05 A2959 RMK A01 T01841054  RH  019%=      5-min Rain = 0
KPD3 182304Z 27018KT 19/M05 A2959 RMK A01 T01851054  RH  019%=      5-min Rain = 0
KPD3 182305Z 28015KT 19/M05 A2959 RMK A01 T01851053  RH  019%=      5-min Rain = 0
KPD3 182306Z 27017KT 18/M05 A296 RMK A01 T01841052  RH  020%=      5-min Rain = 0
KPD3 182307Z 27019G27KT 18/M05 A296 RMK A01 T01831050  RH  020%=      5-min Rain = 0
KPD3 182308Z 29022KT 18/M04 A2961 RMK A01 T01821042  RH  021%=      5-min Rain = 0
KPD3 182309Z 33024G31KT 18/M04 A2963 RMK A01 T01811038  RH  022%=      5-min Rain = 0
KPD3 182310Z 34022KT 17/M01 A2963 RMK A01 T01701011  RH  029%=      5-min Rain = 0
KPD3 182311Z 35022G27KT 15/M01 A2963 RMK A01 T01501005  RH  035%=      5-min Rain = 0
KPD3 182312Z 35025KT 14/M00 A2963 RMK A01 T01381001  RH  039%=      5-min Rain = 0
KPD3 182313Z 35025KT 13/00 A2963 RMK A01 T01320001  RH  041%=      5-min Rain = 0
KPD3 182314Z 35026KT 13/00 A2964 RMK A01 T01280003  RH  042%=      5-min Rain = 0
KPD3 182315Z 35030KT 13/00 A2964 RMK A01 T01250004  RH  043%=      5-min Rain = 0
KPD3 182316Z 35024G29KT 12/00 A2965 RMK A01 T01210004  RH  045%=      5-min Rain = 0
KPD3 182317Z 34022KT 12/00 A2966 RMK A01 T01190004  RH  045%=      5-min Rain = 0
KPD3 182318Z 33016G24KT 12/00 A2966 RMK A01 T01180004  RH  046%=      5-min Rain = 0
KPD3 182319Z 33013KT 12/00 A2966 RMK A01 T01170004  RH  046%=      5-min Rain = 0
KPD3 182320Z 35007KT 12/01 A2966 RMK A01 T01160005  RH  046%=      5-min Rain = 0
KPD3 182321Z 35014G25KT 12/00 A2966 RMK A01 T01150004  RH  046%=      5-min Rain = 0
KPD3 182322Z 36020G25KT 11/00 A2965 RMK A01 T01120003  RH  047%=      5-min Rain = 0
KPD3 182323Z 36021G34KT 11/00 A2965 RMK A01 T01090003  RH  048%=      5-min Rain = 0
KPD3 182324Z 36026G32KT 11/00 A2964 RMK A01 T01070003  RH  049%=      5-min Rain = 0
KPD3 182325Z 35029KT 11/00 A2964 RMK A01 T01050004  RH  050%=      5-min Rain = 0
KPD3 182326Z 35028G33KT 10/00 A2964 RMK A01 T01030004  RH  050%=      5-min Rain = 0
KPD3 182327Z 36030KT 10/01 A2964 RMK A01 T01020005  RH  051%=      5-min Rain = 0
KPD3 182328Z 36025G31KT 10/01 A2965 RMK A01 T01010005  RH  051%=      5-min Rain = 0
KPD3 182329Z 35025KT 10/01 A2965 RMK A01 T01010005  RH  051%=      5-min Rain = 0
KPD3 182330Z 35023G28KT 10/01 A2965 RMK A01 T01000005  RH  052%=      5-min Rain = 0
KPD3 182331Z 36027G36KT 10/01 A2964 RMK A01 T01000005  RH  052%=      5-min Rain = 0
KPD3 182332Z 36029G34KT 10/01 A2964 RMK A01 T00990005  RH  052%=      5-min Rain = 0
KPD3 182333Z 35026KT 10/01 A2965 RMK A01 T00980005  RH  052%=      5-min Rain = 0
KPD3 182334Z 35025KT 10/01 A2965 RMK A01 T00970005  RH  053%=      5-min Rain = 0
KPD3 182335Z 35023KT 10/01 A2966 RMK A01 T00960005  RH  053%=      5-min Rain = 0
KPD3 182336Z 35021G27KT 10/01 A2966 RMK A01 T00960005  RH  053%=      5-min Rain = 0
KPD3 182337Z 00027G32KT 10/01 A2965 RMK A01 T00950005  RH  053%=      5-min Rain = 0
KPD3 182338Z 00026G31KT 09/00 A2965 RMK A01 T00940004  RH  053%=      5-min Rain = 0
KPD3 182339Z 36028KT 09/00 A2965 RMK A01 T00920004  RH  054%=      5-min Rain = 0
KPD3 182340Z 00028G34KT 09/00 A2966 RMK A01 T00910004  RH  054%=      5-min Rain = 0
KPD3 182341Z 35025KT 09/00 A2966 RMK A01 T00900004  RH  055%=      5-min Rain = 0
KPD3 182342Z 00023KT 09/00 A2966 RMK A01 T00890004  RH  055%=      5-min Rain = 0
KPD3 182343Z 36027KT 09/00 A2966 RMK A01 T00880004  RH  055%=      5-min Rain = 0
KPD3 182344Z 36023KT 09/00 A2966 RMK A01 T00870004  RH  056%=      5-min Rain = 0
KPD3 182345Z 36021KT 09/00 A2967 RMK A01 T00860004  RH  056%=      5-min Rain = 0
KPD3 182346Z 00024G32KT 09/00 A2967 RMK A01 T00850003  RH  056%=      5-min Rain = 0
KPD3 182347Z 36027G32KT 08/00 A2966 RMK A01 T00840003  RH  057%=      5-min Rain = 0
KPD3 182348Z 35027KT 08/00 A2967 RMK A01 T00830003  RH  057%=      5-min Rain = 0
KPD3 182349Z 36023G28KT 08/00 A2967 RMK A01 T00810003  RH  058%=      5-min Rain = 0
KPD3 182350Z 36023KT 08/00 A2967 RMK A01 T00800003  RH  058%=      5-min Rain = 0
KPD3 182351Z 36025KT 08/00 A2967 RMK A01 T00790003  RH  058%=      5-min Rain = 0
KPD3 182352Z 35021KT 08/00 A2967 RMK A01 T00780003  RH  059%=      5-min Rain = 0
KPD3 182353Z 35029KT 08/00 A2966 RMK A01 T00770002  RH  059%=      5-min Rain = 0
KPD3 182354Z 35027KT 08/00 A2966 RMK A01 T00760002  RH  059%=      5-min Rain = 0
KPD3 182355Z 35025G31KT 08/00 A2967 RMK A01 T00750002  RH  060%=      5-min Rain = 0
KPD3 182356Z 35023KT 07/00 A2967 RMK A01 T00740002  RH  060%=      5-min Rain = 0
KPD3 182357Z 00023G28KT 07/00 A2967 RMK A01 T00730002  RH  060%=      5-min Rain = 0
KPD3 182358Z 00024KT 07/00 A2967 RMK A01 T00720001  RH  061%=      5-min Rain = 0
KPD3 182359Z 35023G30KT 07/00 A2967 RMK A01 T00700000  RH  061%=      5-min Rain = 0
KPD3 190000Z 35030KT 07/00 A2967 RMK A01 T006900-0  RH  061%=      5-min Rain = 0
KPD3 190001Z 35027KT 07/M00 A2967 RMK A01 T00671001  RH  062%=      5-min Rain = 0
KPD3 190002Z 36025KT 07/M00 A2967 RMK A01 T00661001  RH  062%=      5-min Rain = 0
KPD3 190003Z 36024G30KT 07/M00 A2967 RMK A01 T00651001  RH  063%=      5-min Rain = 0
KPD3 190004Z 00025G31KT 06/M00 A2967 RMK A01 T00641001  RH  063%=      5-min Rain = 0
KPD3 190005Z 36031G36KT 06/M00 A2967 RMK A01 T00621002  RH  063%=      5-min Rain = 0
KPD3 190006Z 01028G34KT 06/M00 A2968 RMK A01 T00611003  RH  064%=      5-min Rain = 0
KPD3 190007Z 01028G33KT 06/M00 A2968 RMK A01 T00591003  RH  064%=      5-min Rain = 0
KPD3 190008Z 36031G41KT 06/M00 A2968 RMK A01 T00581003  RH  065%=      5-min Rain = 0
KPD3 190009Z 35028G36KT 06/M00 A2968 RMK A01 T00571003  RH  065%=      5-min Rain = 0
KPD3 190010Z 34028G35KT 06/M00 A2968 RMK A01 T00561004  RH  066%=      5-min Rain = 0
KPD3 190011Z 35030KT 06/M00 A2968 RMK A01 T00551004  RH  066%=      5-min Rain = 0
KPD3 190012Z 36030G36KT 05/M00 A2969 RMK A01 T00531004  RH  066%=      5-min Rain = 0
KPD3 190013Z 00029G35KT 05/M00 A2969 RMK A01 T00531004  RH  067%=      5-min Rain = 0
KPD3 190014Z 36032G40KT 05/M00 A2969 RMK A01 T00521004  RH  067%=      5-min Rain = 0
KPD3 190015Z 35032G37KT 05/M00 A2969 RMK A01 T00511004  RH  067%=      5-min Rain = 0
KPD3 190016Z 36029G34KT 05/M00 A297 RMK A01 T00511004  RH  068%=      5-min Rain = 0
KPD3 190017Z 35025KT 05/M00 A297 RMK A01 T00501004  RH  068%=      5-min Rain = 0
KPD3 190018Z 35024G34KT 05/M00 A297 RMK A01 T00491004  RH  068%=      5-min Rain = 0
KPD3 190019Z 35028G33KT 05/M00 A297 RMK A01 T00491004  RH  068%=      5-min Rain = 0
KPD3 190020Z 34026G31KT 05/M00 A297 RMK A01 T00481004  RH  069%=      5-min Rain = 0
KPD3 190021Z 35026G31KT 05/M00 A297 RMK A01 T00481004  RH  069%=      5-min Rain = 0
KPD3 190022Z 34025G31KT 05/M00 A2971 RMK A01 T00471004  RH  069%=      5-min Rain = 0
KPD3 190023Z 34026G31KT 05/M00 A2971 RMK A01 T00471004  RH  069%=      5-min Rain = 0
KPD3 190024Z 35027G33KT 05/M00 A2971 RMK A01 T00471004  RH  070%=      5-min Rain = 0
KPD3 190025Z 35025G30KT 05/M00 A2971 RMK A01 T00471004  RH  070%=      5-min Rain = 0
KPD3 190026Z 35025KT 05/M00 A2972 RMK A01 T00471004  RH  070%=      5-min Rain = 0
KPD3 190027Z 34025KT 05/M00 A2972 RMK A01 T00471004  RH  070%=      5-min Rain = 0
KPD3 190028Z 34026G32KT 05/M00 A2972 RMK A01 T00471003  RH  070%=      5-min Rain = 0
KPD3 190029Z 34022KT 05/M00 A2973 RMK A01 T00471003  RH  070%=      5-min Rain = 0
KPD3 190030Z 34029G36KT 05/M00 A2973 RMK A01 T00461004  RH  070%=      5-min Rain = 0
KPD3 190031Z 34029KT 05/M00 A2973 RMK A01 T00461003  RH  070%=      5-min Rain = 0
KPD3 190032Z 34026KT 05/M00 A2973 RMK A01 T00461003  RH  070%=      5-min Rain = 0
KPD3 190033Z 34029KT 05/M00 A2974 RMK A01 T00461003  RH  070%=      5-min Rain = 0
KPD3 190034Z 34027G33KT 05/M00 A2974 RMK A01 T00461003  RH  070%=      5-min Rain = 0
KPD3 190035Z 35029G34KT 05/M00 A2974 RMK A01 T00461003  RH  071%=      5-min Rain = 0
KPD3 190036Z 35027KT 05/M00 A2975 RMK A01 T00461003  RH  071%=      5-min Rain = 0
KPD3 190037Z 34028G37KT 05/M00 A2975 RMK A01 T00461003  RH  071%=      5-min Rain = 0
KPD3 190038Z 34026G33KT 05/M00 A2974 RMK A01 T00451003  RH  071%=      5-min Rain = 0
KPD3 190039Z 35031G36KT 04/M00 A2975 RMK A01 T00441004  RH  071%=      5-min Rain = 0
KPD3 190040Z 35023G30KT 04/M00 A2975 RMK A01 T00431004  RH  071%=      5-min Rain = 0
KPD3 190041Z 35024G30KT 04/M00 A2975 RMK A01 T00431004  RH  072%=      5-min Rain = 0
KPD3 190042Z 35024G32KT 04/M00 A2976 RMK A01 T00431004  RH  072%=      5-min Rain = 0
KPD3 190043Z 34028KT 04/M00 A2975 RMK A01 T00431004  RH  071%=      5-min Rain = 0
KPD3 190044Z 36025G34KT 04/M01 A2976 RMK A01 T00431005  RH  071%=      5-min Rain = 0
KPD3 190045Z 36026G34KT 04/M01 A2976 RMK A01 T00431005  RH  071%=      5-min Rain = 0
KPD3 190046Z 00029KT 04/M01 A2976 RMK A01 T00431005  RH  071%=      5-min Rain = 0
KPD3 190047Z 36028KT 04/M01 A2976 RMK A01 T00421005  RH  071%=      5-min Rain = 0
KPD3 190048Z 35027KT 04/M01 A2976 RMK A01 T00421005  RH  071%=      5-min Rain = 0
KPD3 190049Z 35026G33KT 04/M01 A2976 RMK A01 T00421005  RH  071%=      5-min Rain = 0
KPD3 190050Z 35024KT 04/M01 A2976 RMK A01 T00421005  RH  071%=      5-min Rain = 0
KPD3 190051Z 34026G31KT 04/M01 A2976 RMK A01 T00421005  RH  071%=      5-min Rain = 0
KPD3 190052Z 34026G31KT 04/M01 A2976 RMK A01 T00421005  RH  071%=      5-min Rain = 0
KPD3 190053Z 35024KT 04/M01 A2976 RMK A01 T00421005  RH  071%=      5-min Rain = 0
KPD3 190054Z 34028G39KT 04/M01 A2976 RMK A01 T00421006  RH  071%=      5-min Rain = 0
KPD3 190055Z 34032G38KT 04/M01 A2976 RMK A01 T00421006  RH  071%=      5-min Rain = 0
KPD3 190056Z 35028G33KT 04/M01 A2977 RMK A01 T00411006  RH  071%=      5-min Rain = 0
KPD3 190057Z 35029G34KT 04/M01 A2976 RMK A01 T00411006  RH  071%=      5-min Rain = 0
KPD3 190058Z 01030G38KT 04/M01 A2977 RMK A01 T00411006  RH  072%=      5-min Rain = 0
KPD3 190059Z 36030G35KT 04/M01 A2976 RMK A01 T00411006  RH  072%=      5-min Rain = 0
KPD3 190100Z 36028KT 04/M01 A2976 RMK A01 T00411006  RH  071%=      5-min Rain = 0
KPD3 190101Z 36026G32KT 04/M01 A2977 RMK A01 T00411006  RH  071%=      5-min Rain = 0
KPD3 190102Z 35029KT 04/M01 A2977 RMK A01 T00411006  RH  071%=      5-min Rain = 0
KPD3 190103Z 35024KT 04/M01 A2977 RMK A01 T00411006  RH  071%=      5-min Rain = 0
KPD3 190104Z 35035G43KT 04/M01 A2977 RMK A01 T00411006  RH  072%=      5-min Rain = 0
KPD3 190105Z 35032G40KT 04/M01 A2977 RMK A01 T00401006  RH  072%=      5-min Rain = 0
KPD3 190106Z 35032G38KT 04/M01 A2977 RMK A01 T00401006  RH  072%=      5-min Rain = 0
KPD3 190107Z 35031G40KT 04/M01 A2977 RMK A01 T00391006  RH  072%=      5-min Rain = 0
KPD3 190108Z 35029G34KT 04/M01 A2977 RMK A01 T00391006  RH  072%=      5-min Rain = 0
KPD3 190109Z 34027G32KT 04/M01 A2977 RMK A01 T00391006  RH  072%=      5-min Rain = 0
KPD3 190110Z 35028G33KT 04/M01 A2977 RMK A01 T00391006  RH  072%=      5-min Rain = 0
KPD3 190111Z 34030G35KT 04/M01 A2977 RMK A01 T00391006  RH  072%=      5-min Rain = 0
KPD3 190112Z 34031G38KT 04/M01 A2977 RMK A01 T00391006  RH  072%=      5-min Rain = 0
KPD3 190113Z 34030KT 04/M01 A2977 RMK A01 T00391006  RH  072%=      5-min Rain = 0
KPD3 190114Z 35032KT 04/M01 A2977 RMK A01 T00391006  RH  072%=      5-min Rain = 0
KPD3 190115Z 35026G32KT 04/M01 A2977 RMK A01 T00391006  RH  072%=      5-min Rain = 0
KPD3 190116Z 35025G32KT 04/M01 A2978 RMK A01 T00391006  RH  072%=      5-min Rain = 0
KPD3 190117Z 35030KT 04/M01 A2978 RMK A01 T00381007  RH  072%=      5-min Rain = 0
KPD3 190118Z 34031G37KT 04/M01 A2978 RMK A01 T00391006  RH  073%=      5-min Rain = 0
KPD3 190119Z 34030G35KT 04/M01 A2978 RMK A01 T00381006  RH  073%=      5-min Rain = 0
KPD3 190120Z 34028G33KT 04/M01 A2978 RMK A01 T00371006  RH  073%=      5-min Rain = 0
KPD3 190121Z 34029G34KT 04/M01 A2978 RMK A01 T00371006  RH  073%=      5-min Rain = 0
KPD3 190122Z 35027KT 04/M01 A2978 RMK A01 T00371006  RH  073%=      5-min Rain = 0
KPD3 190123Z 35028G36KT 04/M01 A2979 RMK A01 T00371006  RH  074%=      5-min Rain = 0
KPD3 190124Z 35035G42KT 04/M01 A2978 RMK A01 T00371006  RH  074%=      5-min Rain = 0
KPD3 190125Z 35033KT 04/M01 A2979 RMK A01 T00361005  RH  074%=      5-min Rain = 0
KPD3 190126Z 35028G33KT 04/M01 A2979 RMK A01 T00361005  RH  074%=      5-min Rain = 0
KPD3 190127Z 35031G37KT 04/M01 A2979 RMK A01 T00361005  RH  075%=      5-min Rain = 0
KPD3 190128Z 35035G41KT 04/M01 A2979 RMK A01 T00361005  RH  075%=      5-min Rain = 0
KPD3 190129Z 35031G40KT 04/M01 A2979 RMK A01 T00351005  RH  075%=      5-min Rain = 0
KPD3 190130Z 35034G39KT 04/M01 A2979 RMK A01 T00351005  RH  075%=      5-min Rain = 0
KPD3 190131Z 35030G36KT 04/M01 A2979 RMK A01 T00351005  RH  075%=      5-min Rain = 0
KPD3 190132Z 36031G37KT 04/M01 A298 RMK A01 T00351005  RH  075%=      5-min Rain = 0
KPD3 190133Z 35029G37KT 04/M01 A298 RMK A01 T00351006  RH  074%=      5-min Rain = 0
KPD3 190134Z 35030G36KT 04/M01 A298 RMK A01 T00351006  RH  074%=      5-min Rain = 0
KPD3 190135Z 35030G35KT 04/M01 A2979 RMK A01 T00351007  RH  074%=      5-min Rain = 0
KPD3 190136Z 35032G38KT 04/M01 A298 RMK A01 T00351007  RH  074%=      5-min Rain = 0
KPD3 190137Z 35025G30KT 04/M01 A298 RMK A01 T00361007  RH  074%=      5-min Rain = 0
KPD3 190138Z 35027G34KT 04/M01 A298 RMK A01 T00361007  RH  074%=      5-min Rain = 0
KPD3 190139Z 35027G34KT 04/M01 A298 RMK A01 T00361007  RH  074%=      5-min Rain = 0
KPD3 190140Z 35031G36KT 04/M01 A298 RMK A01 T00361006  RH  074%=      5-min Rain = 0
KPD3 190141Z 35029KT 04/M01 A298 RMK A01 T00351006  RH  074%=      5-min Rain = 0
KPD3 190142Z 36029G37KT 04/M01 A298 RMK A01 T00351006  RH  074%=      5-min Rain = 0
KPD3 190143Z 35029G35KT 04/M01 A298 RMK A01 T00361006  RH  074%=      5-min Rain = 0
KPD3 190144Z 35025G31KT 04/M01 A298 RMK A01 T00351006  RH  074%=      5-min Rain = 0
KPD3 190145Z 35022G27KT 04/M01 A2981 RMK A01 T00351006  RH  074%=      5-min Rain = 0
KPD3 190146Z 35023G32KT 04/M01 A2981 RMK A01 T00351006  RH  074%=      5-min Rain = 0
KPD3 190147Z 35024G29KT 04/M01 A2981 RMK A01 T00351007  RH  074%=      5-min Rain = 0
KPD3 190148Z 35032G40KT 04/M01 A2981 RMK A01 T00351007  RH  074%=      5-min Rain = 0
KPD3 190149Z 35034G42KT 03/M01 A298 RMK A01 T00341007  RH  074%=      5-min Rain = 0
KPD3 190150Z 35029KT 03/M01 A2981 RMK A01 T00331007  RH  075%=      5-min Rain = 0
KPD3 190151Z 34029KT 03/M01 A2981 RMK A01 T00331007  RH  075%=      5-min Rain = 0
KPD3 190152Z 35029G34KT 03/M01 A2981 RMK A01 T00331007  RH  075%=      5-min Rain = 0
KPD3 190153Z 35026G32KT 03/M01 A2981 RMK A01 T00331007  RH  075%=      5-min Rain = 0
KPD3 190154Z 35028G33KT 03/M01 A2981 RMK A01 T00331007  RH  075%=      5-min Rain = 0
KPD3 190155Z 34027G36KT 03/M01 A2981 RMK A01 T00331007  RH  075%=      5-min Rain = 0
KPD3 190156Z 35031KT 03/M01 A2981 RMK A01 T00321007  RH  075%=      5-min Rain = 0
KPD3 190157Z 35030G35KT 03/M01 A2981 RMK A01 T00331007  RH  075%=      5-min Rain = 0
KPD3 190158Z 35030KT 03/M01 A2982 RMK A01 T00331007  RH  075%=      5-min Rain = 0
KPD3 190159Z 35026G33KT 03/M01 A2982 RMK A01 T00331007  RH  075%=      5-min Rain = 0
KPD3 190200Z 35028G35KT 03/M01 A2982 RMK A01 T00321008  RH  075%=      5-min Rain = 0
KPD3 190201Z 34032G38KT 03/M01 A2982 RMK A01 T00331008  RH  075%=      5-min Rain = 0
KPD3 190202Z 35030G41KT 03/M01 A2982 RMK A01 T00331008  RH  075%=      5-min Rain = 0
KPD3 190203Z 35033G40KT 03/M01 A2982 RMK A01 T00321009  RH  074%=      5-min Rain = 0
KPD3 190204Z 35033G39KT 03/M01 A2982 RMK A01 T00331008  RH  074%=      5-min Rain = 0
KPD3 190205Z 35028G35KT 03/M01 A2983 RMK A01 T00331009  RH  074%=      5-min Rain = 0
KPD3 190206Z 35028G35KT 03/M01 A2983 RMK A01 T00331009  RH  074%=      5-min Rain = 0
KPD3 190207Z 35028G34KT 03/M01 A2983 RMK A01 T00331009  RH  074%=      5-min Rain = 0
KPD3 190208Z 35032G37KT 03/M01 A2983 RMK A01 T00331009  RH  074%=      5-min Rain = 0
KPD3 190209Z 35031G40KT 03/M01 A2983 RMK A01 T00331010  RH  074%=      5-min Rain = 0
KPD3 190210Z 35031KT 03/M01 A2983 RMK A01 T00331011  RH  073%=      5-min Rain = 0
KPD3 190211Z 34027G35KT 03/M01 A2983 RMK A01 T00331011  RH  073%=      5-min Rain = 0
KPD3 190212Z 35030G37KT 03/M01 A2983 RMK A01 T00321012  RH  073%=      5-min Rain = 0
KPD3 190213Z 36029KT 03/M01 A2983 RMK A01 T00321012  RH  073%=      5-min Rain = 0
KPD3 190214Z 35030G36KT 03/M01 A2983 RMK A01 T00321012  RH  073%=      5-min Rain = 0
KPD3 190215Z 35037G44KT 03/M01 A2983 RMK A01 T00321013  RH  072%=      5-min Rain = 0
KPD3 190216Z 35033G38KT 03/M02 A2983 RMK A01 T00321015  RH  072%=      5-min Rain = 0
KPD3 190217Z 35031G37KT 03/M02 A2983 RMK A01 T00321015  RH  071%=      5-min Rain = 0
KPD3 190218Z 35031G38KT 03/M02 A2983 RMK A01 T00321015  RH  071%=      5-min Rain = 0
KPD3 190219Z 35033G41KT 03/M02 A2983 RMK A01 T00321016  RH  071%=      5-min Rain = 0
KPD3 190220Z 35036G41KT 03/M02 A2983 RMK A01 T00321018  RH  070%=      5-min Rain = 0
KPD3 190221Z 35032G39KT 03/M02 A2983 RMK A01 T00321018  RH  070%=      5-min Rain = 0
KPD3 190222Z 35035G42KT 03/M02 A2983 RMK A01 T00321018  RH  070%=      5-min Rain = 0
KPD3 190223Z 35033KT 03/M02 A2983 RMK A01 T00321019  RH  069%=      5-min Rain = 0
KPD3 190224Z 35033G38KT 03/M02 A2983 RMK A01 T00321019  RH  069%=      5-min Rain = 0
KPD3 190225Z 34033G39KT 03/M02 A2983 RMK A01 T00321019  RH  069%=      5-min Rain = 0
KPD3 190226Z 35031G36KT 03/M02 A2983 RMK A01 T00311019  RH  070%=      5-min Rain = 0
KPD3 190227Z 35025G31KT 03/M02 A2983 RMK A01 T00311018  RH  070%=      5-min Rain = 0
KPD3 190228Z 35028G35KT 03/M02 A2983 RMK A01 T00311017  RH  071%=      5-min Rain = 0
KPD3 190229Z 35024G29KT 03/M02 A2984 RMK A01 T00311017  RH  071%=      5-min Rain = 0
KPD3 190230Z 35031G39KT 03/M02 A2983 RMK A01 T00301017  RH  071%=      5-min Rain = 0
KPD3 190231Z 34030KT 03/M02 A2983 RMK A01 T00301017  RH  071%=      5-min Rain = 0
KPD3 190232Z 34031G37KT 03/M02 A2983 RMK A01 T00301017  RH  071%=      5-min Rain = 0
KPD3 190233Z 35035G41KT 03/M02 A2984 RMK A01 T00291018  RH  071%=      5-min Rain = 0
KPD3 190234Z 35034G44KT 03/M02 A2983 RMK A01 T00291018  RH  071%=      5-min Rain = 0
KPD3 190235Z 35034KT 03/M02 A2984 RMK A01 T00281019  RH  071%=      5-min Rain = 0
KPD3 190236Z 35034G42KT 03/M02 A2984 RMK A01 T00281020  RH  071%=      5-min Rain = 0
KPD3 190237Z 35038G45KT 03/M02 A2983 RMK A01 T00271021  RH  070%=      5-min Rain = 0
KPD3 190238Z 35034G39KT 03/M02 A2984 RMK A01 T00271021  RH  071%=      5-min Rain = 0
KPD3 190239Z 35037G46KT 03/M02 A2984 RMK A01 T00271022  RH  070%=      5-min Rain = 0
KPD3 190240Z 35035G41KT 03/M02 A2984 RMK A01 T00271022  RH  070%=      5-min Rain = 0
KPD3 190241Z 35035G40KT 03/M02 A2984 RMK A01 T00261023  RH  070%=      5-min Rain = 0
KPD3 190242Z 35032G37KT 03/M02 A2984 RMK A01 T00261023  RH  070%=      5-min Rain = 0
KPD3 190243Z 35038G47KT 03/M02 A2984 RMK A01 T00261023  RH  070%=      5-min Rain = 0
KPD3 190244Z 35033G41KT 03/M02 A2984 RMK A01 T00261023  RH  070%=      5-min Rain = 0
KPD3 190245Z 36030G38KT 03/M02 A2985 RMK A01 T00261023  RH  070%=      5-min Rain = 0
KPD3 190246Z 36029G38KT 03/M02 A2985 RMK A01 T00261023  RH  070%=      5-min Rain = 0
KPD3 190247Z 35032KT 03/M02 A2984 RMK A01 T00261023  RH  070%=      5-min Rain = 0
KPD3 190248Z 35031G40KT 03/M02 A2985 RMK A01 T00261023  RH  070%=      5-min Rain = 0
KPD3 190249Z 36026G34KT 03/M02 A2985 RMK A01 T00261023  RH  070%=      5-min Rain = 0
KPD3 190250Z 36026G34KT 03/M02 A2985 RMK A01 T00261022  RH  070%=      5-min Rain = 0
KPD3 190251Z 36032G41KT 03/M02 A2985 RMK A01 T00261022  RH  071%=      5-min Rain = 0
KPD3 190252Z 35032G37KT 03/M02 A2985 RMK A01 T00261021  RH  071%=      5-min Rain = 0
KPD3 190253Z 35028G37KT 03/M02 A2985 RMK A01 T00261021  RH  071%=      5-min Rain = 0
KPD3 190254Z 35033G39KT 03/M02 A2985 RMK A01 T00261020  RH  072%=      5-min Rain = 0
KPD3 190255Z 35029KT 03/M02 A2985 RMK A01 T00251020  RH  072%=      5-min Rain = 0
KPD3 190256Z 35032G38KT 03/M02 A2986 RMK A01 T00251019  RH  072%=      5-min Rain = 0
KPD3 190257Z 35030G35KT 03/M02 A2986 RMK A01 T00251019  RH  073%=      5-min Rain = 0
KPD3 190258Z 35031G38KT 03/M02 A2986 RMK A01 T00251019  RH  073%=      5-min Rain = 0
KPD3 190259Z 34030G37KT 03/M02 A2986 RMK A01 T00251019  RH  073%=      5-min Rain = 0
KPD3 190300Z 35029KT 03/M02 A2986 RMK A01 T00251019  RH  073%=      5-min Rain = 0
KPD3 190301Z 35030G38KT 03/M02 A2986 RMK A01 T00251018  RH  073%=      5-min Rain = 0
KPD3 190302Z 34031G36KT 03/M02 A2986 RMK A01 T00251018  RH  073%=      5-min Rain = 0
KPD3 190303Z 35030G37KT 03/M02 A2986 RMK A01 T00251019  RH  073%=      5-min Rain = 0
KPD3 190304Z 35028G33KT 02/M02 A2986 RMK A01 T00241020  RH  073%=      5-min Rain = 0
KPD3 190305Z 34022G27KT 02/M02 A2987 RMK A01 T00241020  RH  073%=      5-min Rain = 0
KPD3 190306Z 34029G35KT 02/M02 A2986 RMK A01 T00241020  RH  073%=      5-min Rain = 0
KPD3 190307Z 35028G38KT 02/M02 A2987 RMK A01 T00231020  RH  073%=      5-min Rain = 0
KPD3 190308Z 35028KT 02/M02 A2987 RMK A01 T00241020  RH  073%=      5-min Rain = 0
KPD3 190309Z 35028KT 02/M02 A2987 RMK A01 T00231021  RH  073%=      5-min Rain = 0
KPD3 190310Z 35026KT 02/M02 A2987 RMK A01 T00231021  RH  072%=      5-min Rain = 0
KPD3 190311Z 35032G42KT 02/M02 A2987 RMK A01 T00231022  RH  072%=      5-min Rain = 0
KPD3 190312Z 36031G37KT 02/M02 A2987 RMK A01 T00231022  RH  072%=      5-min Rain = 0
KPD3 190313Z 35029KT 02/M02 A2987 RMK A01 T00231022  RH  072%=      5-min Rain = 0
KPD3 190314Z 35032G38KT 02/M02 A2987 RMK A01 T00231022  RH  072%=      5-min Rain = 0
KPD3 190315Z 35033G40KT 02/M02 A2987 RMK A01 T00221022  RH  072%=      5-min Rain = 0
KPD3 190316Z 35033G39KT 02/M02 A2987 RMK A01 T00221022  RH  072%=      5-min Rain = 0
KPD3 190317Z 35034G41KT 02/M02 A2987 RMK A01 T00211023  RH  072%=      5-min Rain = 0
KPD3 190318Z 35036KT 02/M02 A2987 RMK A01 T00211023  RH  072%=      5-min Rain = 0
KPD3 190319Z 35036G43KT 02/M02 A2987 RMK A01 T00211023  RH  072%=      5-min Rain = 0
KPD3 190320Z 35029G38KT 02/M02 A2987 RMK A01 T00211023  RH  072%=      5-min Rain = 0
KPD3 190321Z 35034G41KT 02/M02 A2987 RMK A01 T00211024  RH  072%=      5-min Rain = 0
KPD3 190322Z 35036G47KT 02/M02 A2987 RMK A01 T00211024  RH  072%=      5-min Rain = 0
KPD3 190323Z 35034G43KT 02/M02 A2987 RMK A01 T00211024  RH  072%=      5-min Rain = 0
KPD3 190324Z 35034G42KT 02/M02 A2988 RMK A01 T00211024  RH  072%=      5-min Rain = 0
KPD3 190325Z 36036G42KT 02/M02 A2988 RMK A01 T00211024  RH  072%=      5-min Rain = 0
KPD3 190326Z 35031KT 02/M03 A2988 RMK A01 T00211025  RH  072%=      5-min Rain = 0
KPD3 190327Z 34030G36KT 02/M03 A2988 RMK A01 T00211025  RH  072%=      5-min Rain = 0
KPD3 190328Z 35031KT 02/M03 A2989 RMK A01 T00211025  RH  072%=      5-min Rain = 0
KPD3 190329Z 35028G34KT 02/M03 A2989 RMK A01 T00201025  RH  072%=      5-min Rain = 0
KPD3 190330Z 35025G34KT 02/M03 A2989 RMK A01 T00201025  RH  072%=      5-min Rain = 0
KPD3 190331Z 35033G39KT 02/M03 A2989 RMK A01 T00201025  RH  072%=      5-min Rain = 0
KPD3 190332Z 35035G40KT 02/M03 A2989 RMK A01 T00201025  RH  072%=      5-min Rain = 0
KPD3 190333Z 35034G42KT 02/M03 A2989 RMK A01 T00201025  RH  072%=      5-min Rain = 0
KPD3 190334Z 35033G39KT 02/M03 A2989 RMK A01 T00201025  RH  072%=      5-min Rain = 0
KPD3 190335Z 35028G33KT 02/M03 A299 RMK A01 T00201025  RH  072%=      5-min Rain = 0
KPD3 190336Z 35028G35KT 02/M03 A299 RMK A01 T00201025  RH  072%=      5-min Rain = 0
KPD3 190337Z 36027G33KT 02/M03 A299 RMK A01 T00201025  RH  072%=      5-min Rain = 0
KPD3 190338Z 36030G37KT 02/M03 A299 RMK A01 T00201025  RH  072%=      5-min Rain = 0
KPD3 190339Z 35031KT 02/M03 A299 RMK A01 T00201025  RH  072%=      5-min Rain = 0
KPD3 190340Z 35025KT 02/M03 A2991 RMK A01 T00201025  RH  072%=      5-min Rain = 0
KPD3 190341Z 35026G32KT 02/M03 A2991 RMK A01 T00201025  RH  072%=      5-min Rain = 0
KPD3 190342Z 35027G35KT 02/M02 A2991 RMK A01 T00201023  RH  073%=      5-min Rain = 0
KPD3 190343Z 35021G26KT 02/M02 A2991 RMK A01 T00201023  RH  073%=      5-min Rain = 0
KPD3 190344Z 35019G28KT 02/M02 A2991 RMK A01 T00201022  RH  074%=      5-min Rain = 0
KPD3 190345Z 35025G30KT 02/M02 A2991 RMK A01 T00191021  RH  074%=      5-min Rain = 0
KPD3 190346Z 35027G32KT 02/M02 A2991 RMK A01 T00191021  RH  075%=      5-min Rain = 0
KPD3 190347Z 35032G41KT 02/M02 A2991 RMK A01 T00181021  RH  075%=      5-min Rain = 0
KPD3 190348Z 35029G36KT 02/M02 A2991 RMK A01 T00181021  RH  075%=      5-min Rain = 0
KPD3 190349Z 35027G32KT 02/M02 A2991 RMK A01 T00181021  RH  076%=      5-min Rain = 0
KPD3 190350Z 35029G36KT 02/M02 A2992 RMK A01 T00181021  RH  076%=      5-min Rain = 0
KPD3 190351Z 35034G41KT 02/M02 A2991 RMK A01 T00171022  RH  075%=      5-min Rain = 0
KPD3 190352Z 35032G43KT 02/M02 A2991 RMK A01 T00171022  RH  075%=      5-min Rain = 0
KPD3 190353Z 36030G37KT 02/M02 A2992 RMK A01 T00171023  RH  075%=      5-min Rain = 0
KPD3 190354Z 34034G39KT 02/M02 A2991 RMK A01 T00181024  RH  074%=      5-min Rain = 0
KPD3 190355Z 35031G39KT 02/M03 A2992 RMK A01 T00181025  RH  073%=      5-min Rain = 0
KPD3 190356Z 35027G34KT 02/M03 A2992 RMK A01 T00181025  RH  073%=      5-min Rain = 0
KPD3 190357Z 35030G35KT 02/M03 A2992 RMK A01 T00181025  RH  073%=      5-min Rain = 0
KPD3 190358Z 35025KT 02/M03 A2992 RMK A01 T00181025  RH  073%=      5-min Rain = 0
KPD3 190359Z 35028G35KT 02/M03 A2992 RMK A01 T00181026  RH  072%=      5-min Rain = 0
KPD3 190400Z 36031G37KT 02/M03 A2992 RMK A01 T00191026  RH  072%=      5-min Rain = 0
KPD3 190401Z 36034G42KT 02/M03 A2992 RMK A01 T00191027  RH  071%=      5-min Rain = 0
KPD3 190402Z 36039G44KT 02/M03 A2992 RMK A01 T00191029  RH  071%=      5-min Rain = 0
KPD3 190403Z 35031G39KT 02/M03 A2992 RMK A01 T00191030  RH  070%=      5-min Rain = 0
KPD3 190404Z 35027G32KT 02/M03 A2992 RMK A01 T00191030  RH  070%=      5-min Rain = 0
KPD3 190405Z 36029KT 02/M03 A2992 RMK A01 T00191030  RH  070%=      5-min Rain = 0
KPD3 190406Z 35026G34KT 02/M03 A2993 RMK A01 T00191030  RH  070%=      5-min Rain = 0
KPD3 190407Z 36029G36KT 02/M03 A2993 RMK A01 T00191030  RH  070%=      5-min Rain = 0
KPD3 190408Z 35026G34KT 02/M03 A2993 RMK A01 T00191030  RH  070%=      5-min Rain = 0
KPD3 190409Z 35028G37KT 02/M03 A2993 RMK A01 T00191029  RH  071%=      5-min Rain = 0
KPD3 190410Z 36035G41KT 02/M03 A2993 RMK A01 T00191029  RH  070%=      5-min Rain = 0
KPD3 190411Z 35036G42KT 02/M03 A2993 RMK A01 T00191030  RH  070%=      5-min Rain = 0
KPD3 190412Z 35031G39KT 02/M03 A2993 RMK A01 T00191031  RH  069%=      5-min Rain = 0
KPD3 190413Z 35031G39KT 02/M03 A2993 RMK A01 T00181031  RH  070%=      5-min Rain = 0
KPD3 190414Z 35031G39KT 02/M03 A2993 RMK A01 T00181031  RH  070%=      5-min Rain = 0
KPD3 190415Z 35030G36KT 02/M03 A2993 RMK A01 T00181031  RH  070%=      5-min Rain = 0
KPD3 190416Z 35023G30KT 02/M03 A2993 RMK A01 T00181030  RH  070%=      5-min Rain = 0
KPD3 190417Z 36024G32KT 02/M03 A2993 RMK A01 T00181030  RH  070%=      5-min Rain = 0
KPD3 190418Z 35024KT 02/M03 A2994 RMK A01 T00181030  RH  071%=      5-min Rain = 0
KPD3 190419Z 34028G38KT 02/M03 A2993 RMK A01 T00181030  RH  071%=      5-min Rain = 0
KPD3 190420Z 35033G38KT 02/M03 A2993 RMK A01 T00181030  RH  071%=      5-min Rain = 0
KPD3 190421Z 35032G41KT 02/M03 A2993 RMK A01 T00171030  RH  071%=      5-min Rain = 0
KPD3 190422Z 35031G38KT 02/M03 A2994 RMK A01 T00171030  RH  071%=      5-min Rain = 0
KPD3 190423Z 35034G43KT 02/M03 A2994 RMK A01 T00161031  RH  071%=      5-min Rain = 0
KPD3 190424Z 35034G39KT 02/M03 A2994 RMK A01 T00161030  RH  071%=      5-min Rain = 0
KPD3 190425Z 35034G42KT 02/M03 A2994 RMK A01 T00161030  RH  072%=      5-min Rain = 0
KPD3 190426Z 35038G45KT 02/M03 A2994 RMK A01 T00151030  RH  072%=      5-min Rain = 0
KPD3 190427Z 35028KT 02/M03 A2994 RMK A01 T00151030  RH  072%=      5-min Rain = 0
KPD3 190428Z 36026G34KT 02/M03 A2995 RMK A01 T00151030  RH  072%=      5-min Rain = 0
KPD3 190429Z 35033G40KT 02/M03 A2994 RMK A01 T00151030  RH  072%=      5-min Rain = 0
KPD3 190430Z 36028G33KT 02/M03 A2995 RMK A01 T00151030  RH  072%=      5-min Rain = 0
KPD3 190431Z 35028G34KT 01/M03 A2995 RMK A01 T00141030  RH  073%=      5-min Rain = 0
KPD3 190432Z 35027G34KT 02/M03 A2995 RMK A01 T00151029  RH  073%=      5-min Rain = 0
KPD3 190433Z 35028G35KT 01/M03 A2995 RMK A01 T00141029  RH  073%=      5-min Rain = 0
KPD3 190434Z 35024G32KT 02/M03 A2995 RMK A01 T00151029  RH  073%=      5-min Rain = 0
KPD3 190435Z 35030G39KT 01/M03 A2995 RMK A01 T00141029  RH  073%=      5-min Rain = 0
KPD3 190436Z 35030G37KT 01/M03 A2995 RMK A01 T00141028  RH  073%=      5-min Rain = 0
KPD3 190437Z 35033G40KT 02/M03 A2995 RMK A01 T00151027  RH  074%=      5-min Rain = 0
KPD3 190438Z 35025G30KT 01/M03 A2996 RMK A01 T00141027  RH  074%=      5-min Rain = 0
KPD3 190439Z 35029G36KT 01/M03 A2996 RMK A01 T00141026  RH  074%=      5-min Rain = 0
KPD3 190440Z 35028G35KT 01/M03 A2996 RMK A01 T00141026  RH  075%=      5-min Rain = 0
KPD3 190441Z 35027KT 01/M03 A2996 RMK A01 T00141026  RH  075%=      5-min Rain = 0
KPD3 190442Z 35025G30KT 01/M03 A2996 RMK A01 T00141025  RH  075%=      5-min Rain = 0
KPD3 190443Z 35027G33KT 01/M03 A2996 RMK A01 T00131025  RH  076%=      5-min Rain = 0
KPD3 190444Z 35032G37KT 01/M03 A2996 RMK A01 T00131025  RH  076%=      5-min Rain = 0
KPD3 190445Z 36030KT 01/M03 A2996 RMK A01 T00131025  RH  076%=      5-min Rain = 0
KPD3 190446Z 35022G29KT 01/M03 A2997 RMK A01 T00121025  RH  077%=      5-min Rain = 0
KPD3 190447Z 35023KT 01/M02 A2997 RMK A01 T00121024  RH  077%=      5-min Rain = 0
KPD3 190448Z 36023KT 01/M02 A2997 RMK A01 T00111024  RH  077%=      5-min Rain = 0
KPD3 190449Z 35030G35KT 01/M02 A2997 RMK A01 T00111024  RH  077%=      5-min Rain = 0
KPD3 190450Z 35024G30KT 01/M02 A2997 RMK A01 T00101024  RH  078%=      5-min Rain = 0
KPD3 190451Z 35024G30KT 01/M02 A2997 RMK A01 T00101024  RH  078%=      5-min Rain = 0
KPD3 190452Z 35029G34KT 01/M02 A2997 RMK A01 T00101024  RH  078%=      5-min Rain = 0
KPD3 190453Z 35026G33KT 01/M02 A2997 RMK A01 T00101024  RH  078%=      5-min Rain = 0
KPD3 190454Z 35027KT 01/M02 A2997 RMK A01 T00091024  RH  078%=      5-min Rain = 0
KPD3 190455Z 35032G37KT 01/M03 A2997 RMK A01 T00091025  RH  078%=      5-min Rain = 0
KPD3 190456Z 35028G36KT 01/M03 A2997 RMK A01 T00091026  RH  078%=      5-min Rain = 0
KPD3 190457Z 35031G37KT 01/M03 A2997 RMK A01 T00091026  RH  078%=      5-min Rain = 0
KPD3 190458Z 35028G35KT 01/M03 A2997 RMK A01 T00091026  RH  078%=      5-min Rain = 0
KPD3 190459Z 36029KT 01/M03 A2997 RMK A01 T00091026  RH  077%=      5-min Rain = 0
KPD3 190500Z 35037G46KT 01/M03 A2997 RMK A01 T00091027  RH  077%=      5-min Rain = 0
KPD3 190501Z 36035KT 01/M03 A2997 RMK A01 T00091029  RH  076%=      5-min Rain = 0
KPD3 190502Z 36031G37KT 01/M03 A2997 RMK A01 T00091029  RH  076%=      5-min Rain = 0
KPD3 190503Z 00031G37KT 01/M03 A2997 RMK A01 T00091029  RH  076%=      5-min Rain = 0
KPD3 190504Z 35030G37KT 01/M03 A2997 RMK A01 T00091029  RH  076%=      5-min Rain = 0
KPD3 190505Z 35028KT 01/M03 A2997 RMK A01 T00091029  RH  076%=      5-min Rain = 0
KPD3 190506Z 35030KT 01/M03 A2998 RMK A01 T00091029  RH  075%=      5-min Rain = 0
KPD3 190507Z 35028G33KT 01/M03 A2998 RMK A01 T00091030  RH  075%=      5-min Rain = 0
KPD3 190508Z 35028G34KT 01/M03 A2998 RMK A01 T00101030  RH  075%=      5-min Rain = 0
KPD3 190509Z 36031G36KT 01/M03 A2998 RMK A01 T00101030  RH  075%=      5-min Rain = 0
KPD3 190510Z 36028G37KT 01/M03 A2998 RMK A01 T00101030  RH  075%=      5-min Rain = 0
KPD3 190511Z 36030G35KT 01/M03 A2998 RMK A01 T00101031  RH  074%=      5-min Rain = 0
KPD3 190512Z 35027G34KT 01/M03 A2998 RMK A01 T00101030  RH  074%=      5-min Rain = 0
KPD3 190513Z 36036KT 01/M03 A2998 RMK A01 T00101031  RH  074%=      5-min Rain = 0
KPD3 190514Z 35031G36KT 01/M03 A2998 RMK A01 T00101031  RH  074%=      5-min Rain = 0
KPD3 190515Z 36032G37KT 01/M03 A2998 RMK A01 T00111031  RH  074%=      5-min Rain = 0
KPD3 190516Z 35027G37KT 01/M03 A2998 RMK A01 T00111031  RH  074%=      5-min Rain = 0
KPD3 190517Z 35028G33KT 01/M03 A2998 RMK A01 T00111031  RH  074%=      5-min Rain = 0
KPD3 190518Z 35030G36KT 01/M03 A2999 RMK A01 T00111031  RH  074%=      5-min Rain = 0
KPD3 190519Z 00028KT 01/M03 A2999 RMK A01 T00111030  RH  074%=      5-min Rain = 0
KPD3 190520Z 35027G32KT 01/M03 A2999 RMK A01 T00111030  RH  074%=      5-min Rain = 0
KPD3 190521Z 34025G30KT 01/M03 A2999 RMK A01 T00111030  RH  074%=      5-min Rain = 0
KPD3 190522Z 35029G36KT 01/M03 A2999 RMK A01 T00111030  RH  074%=      5-min Rain = 0
KPD3 190523Z 35023G28KT 01/M03 A2999 RMK A01 T00111030  RH  074%=      5-min Rain = 0
KPD3 190524Z 35027KT 01/M03 A2999 RMK A01 T00111029  RH  074%=      5-min Rain = 0
KPD3 190525Z 35020G25KT 01/M03 A2999 RMK A01 T00111029  RH  074%=      5-min Rain = 0
KPD3 190526Z 35023G29KT 01/M03 A2999 RMK A01 T00111029  RH  075%=      5-min Rain = 0
KPD3 190527Z 35026KT 01/M03 A2999 RMK A01 T00111029  RH  075%=      5-min Rain = 0
KPD3 190528Z 35022G27KT 01/M03 A2999 RMK A01 T00111029  RH  075%=      5-min Rain = 0
KPD3 190529Z 35026G36KT 01/M03 A2999 RMK A01 T00111028  RH  075%=      5-min Rain = 0
KPD3 190530Z 36025KT 01/M03 A2999 RMK A01 T00111028  RH  075%=      5-min Rain = 0
KPD3 190531Z 35023KT 01/M03 A30 RMK A01 T00111028  RH  075%=      5-min Rain = 0
KPD3 190532Z 35024KT 01/M03 A30 RMK A01 T00111027  RH  075%=      5-min Rain = 0
KPD3 190533Z 35025KT 01/M03 A30 RMK A01 T00111028  RH  076%=      5-min Rain = 0
KPD3 190534Z 35025KT 01/M03 A30 RMK A01 T00111027  RH  076%=      5-min Rain = 0
KPD3 190535Z 00021KT 01/M03 A30 RMK A01 T00111027  RH  076%=      5-min Rain = 0
KPD3 190536Z 35023G32KT 01/M03 A30 RMK A01 T00111027  RH  076%=      5-min Rain = 0
KPD3 190537Z 35026G31KT 01/M03 A30 RMK A01 T00111027  RH  076%=      5-min Rain = 0
KPD3 190538Z 35022G27KT 01/M03 A30 RMK A01 T00111027  RH  075%=      5-min Rain = 0
KPD3 190539Z 35021G29KT 01/M03 A30 RMK A01 T00121027  RH  075%=      5-min Rain = 0
KPD3 190540Z 35020G29KT 01/M03 A30 RMK A01 T00111027  RH  075%=      5-min Rain = 0
KPD3 190541Z 35025G30KT 01/M03 A30 RMK A01 T00121027  RH  076%=      5-min Rain = 0
KPD3 190542Z 36029G35KT 01/M03 A30 RMK A01 T00111027  RH  075%=      5-min Rain = 0
KPD3 190543Z 35027G33KT 01/M03 A30 RMK A01 T00121027  RH  075%=      5-min Rain = 0
KPD3 190544Z 36025KT 01/M03 A30 RMK A01 T00121027  RH  075%=      5-min Rain = 0
KPD3 190545Z 35023G28KT 01/M03 A30 RMK A01 T00121027  RH  075%=      5-min Rain = 0
KPD3 190546Z 35023KT 01/M03 A3001 RMK A01 T00131027  RH  075%=      5-min Rain = 0
KPD3 190547Z 36022KT 01/M03 A3001 RMK A01 T00131027  RH  075%=      5-min Rain = 0
KPD3 190548Z 35021KT 01/M03 A3001 RMK A01 T00121026  RH  075%=      5-min Rain = 0
KPD3 190549Z 35022G29KT 01/M03 A3001 RMK A01 T00121026  RH  075%=      5-min Rain = 0
KPD3 190550Z 35024G31KT 01/M03 A3001 RMK A01 T00121026  RH  075%=      5-min Rain = 0
KPD3 190551Z 35018G23KT 01/M03 A3001 RMK A01 T00121026  RH  075%=      5-min Rain = 0
KPD3 190552Z 35023KT 01/M03 A3001 RMK A01 T00121026  RH  075%=      5-min Rain = 0
KPD3 190553Z 36022KT 01/M03 A3001 RMK A01 T00131026  RH  075%=      5-min Rain = 0
KPD3 190554Z 35022KT 01/M03 A3002 RMK A01 T00131026  RH  075%=      5-min Rain = 0
KPD3 190555Z 34020KT 01/M03 A3002 RMK A01 T00131026  RH  075%=      5-min Rain = 0
KPD3 190556Z 35022G29KT 01/M03 A3002 RMK A01 T00131026  RH  075%=      5-min Rain = 0
KPD3 190557Z 35024G30KT 01/M03 A3002 RMK A01 T00131026  RH  075%=      5-min Rain = 0
KPD3 190558Z 35020G26KT 01/M03 A3002 RMK A01 T00141026  RH  075%=      5-min Rain = 0
KPD3 190559Z 34022G28KT 01/M03 A3002 RMK A01 T00141025  RH  075%=      5-min Rain = 0

Page generated in 0.0731 seconds.